<?xml version="1.0" encoding="UTF-8" standalone="no" ?>
<gpx xmlns="http://www.topografix.com/GPX/1/1" xmlns:xsi="http://www.w3.org/2001/XMLSchema-instance" xsi:schemaLocation="http://www.topografix.com/GPX/1/1 http://www.topografix.com/GPX/1/1/gpx.xsd" version="1.1" creator="VisuGPX - https://www.visugpx.com">
  <metadata>
    <name>aix les bains col de Monthieu</name>
    <desc><![CDATA[aix les bains col de monthieu]]></desc>
  </metadata>
  <trk>
    <name><![CDATA[2013-06-20 10:18]]></name>
    <desc><![CDATA[<h1>OruxMaps</h1><br /><hr align="center" width="480" style="height: 2px; width: 517px"/><h2>Nom: 2013-06-20 10:18</h2><br /><p>Temps de départ: 06/20/2013 10:20</p><p>Temps d'arrivée: 06/20/2013 13:27</p><p>Distance: 22,2 km (03:07)</p><p>Temps déplacement: 02:05</p><p>Vitesse moyenne: 7,1 km/h</p><p>Vitesse moyenne: 10,6 km/h</p><p>Vitess Max.: 50,9 km/h</p><p>Altitude minimale: 233 m</p><p>Altitude maximale: 837 m</p><p>Vitesse d'élévation: 531,3 m/h</p><p>Vitesse de descente: -703,7 m/h</p><p>Gain Altitude: 842 m</p><p>Perte Altitude: -842 m</p><p>Temps d'élévation: 01:35</p><p>Temps de descente: 01:11</p><hr align="center" width="480" style="height: 2px; width: 517px"/>]]></desc>
    <trkseg>
      <trkpt lat="45.70412" lon="5.88583">
        <ele>238.55</ele>
        <time>2013-06-20T08:20:51Z</time>
      </trkpt>
      <trkpt lat="45.70431" lon="5.88586">
        <ele>239.03</ele>
        <time>2013-06-20T08:21:01Z</time>
      </trkpt>
      <trkpt lat="45.7045" lon="5.88596">
        <ele>238.91</ele>
        <time>2013-06-20T08:21:09Z</time>
      </trkpt>
      <trkpt lat="45.70469" lon="5.88606">
        <ele>238.51</ele>
        <time>2013-06-20T08:21:17Z</time>
      </trkpt>
      <trkpt lat="45.70488" lon="5.88616">
        <ele>238.28</ele>
        <time>2013-06-20T08:21:24Z</time>
      </trkpt>
      <trkpt lat="45.70507" lon="5.8861">
        <ele>237.89</ele>
        <time>2013-06-20T08:21:29Z</time>
      </trkpt>
      <trkpt lat="45.70523" lon="5.88596">
        <ele>237.51</ele>
        <time>2013-06-20T08:21:34Z</time>
      </trkpt>
      <trkpt lat="45.70544" lon="5.88599">
        <ele>237.83</ele>
        <time>2013-06-20T08:21:40Z</time>
      </trkpt>
      <trkpt lat="45.70562" lon="5.88615">
        <ele>237.75</ele>
        <time>2013-06-20T08:21:46Z</time>
      </trkpt>
      <trkpt lat="45.7057" lon="5.8864">
        <ele>238.05</ele>
        <time>2013-06-20T08:21:50Z</time>
      </trkpt>
      <trkpt lat="45.70579" lon="5.88663">
        <ele>238.4</ele>
        <time>2013-06-20T08:21:54Z</time>
      </trkpt>
      <trkpt lat="45.70587" lon="5.88686">
        <ele>238.45</ele>
        <time>2013-06-20T08:21:58Z</time>
      </trkpt>
      <trkpt lat="45.70599" lon="5.88707">
        <ele>238.49</ele>
        <time>2013-06-20T08:22:02Z</time>
      </trkpt>
      <trkpt lat="45.70614" lon="5.88725">
        <ele>238.55</ele>
        <time>2013-06-20T08:22:06Z</time>
      </trkpt>
      <trkpt lat="45.70629" lon="5.88749">
        <ele>238.22</ele>
        <time>2013-06-20T08:22:11Z</time>
      </trkpt>
      <trkpt lat="45.70641" lon="5.88773">
        <ele>236.96</ele>
        <time>2013-06-20T08:22:15Z</time>
      </trkpt>
      <trkpt lat="45.70658" lon="5.88793">
        <ele>235.95</ele>
        <time>2013-06-20T08:22:20Z</time>
      </trkpt>
      <trkpt lat="45.70676" lon="5.88808">
        <ele>235.7</ele>
        <time>2013-06-20T08:22:25Z</time>
      </trkpt>
      <trkpt lat="45.70694" lon="5.88825">
        <ele>235.64</ele>
        <time>2013-06-20T08:22:30Z</time>
      </trkpt>
      <trkpt lat="45.70711" lon="5.88844">
        <ele>235.22</ele>
        <time>2013-06-20T08:22:35Z</time>
      </trkpt>
      <trkpt lat="45.70725" lon="5.8886">
        <ele>235.08</ele>
        <time>2013-06-20T08:22:39Z</time>
      </trkpt>
      <trkpt lat="45.70742" lon="5.88881">
        <ele>235.07</ele>
        <time>2013-06-20T08:22:44Z</time>
      </trkpt>
      <trkpt lat="45.70751" lon="5.8891">
        <ele>235.06</ele>
        <time>2013-06-20T08:22:49Z</time>
      </trkpt>
      <trkpt lat="45.70751" lon="5.88938">
        <ele>234.76</ele>
        <time>2013-06-20T08:22:54Z</time>
      </trkpt>
      <trkpt lat="45.70752" lon="5.88966">
        <ele>234.72</ele>
        <time>2013-06-20T08:22:59Z</time>
      </trkpt>
      <trkpt lat="45.70755" lon="5.88997">
        <ele>234.49</ele>
        <time>2013-06-20T08:23:04Z</time>
      </trkpt>
      <trkpt lat="45.70765" lon="5.89024">
        <ele>233.55</ele>
        <time>2013-06-20T08:23:09Z</time>
      </trkpt>
      <trkpt lat="45.70779" lon="5.89043">
        <ele>234.07</ele>
        <time>2013-06-20T08:23:13Z</time>
      </trkpt>
      <trkpt lat="45.70795" lon="5.89057">
        <ele>234.68</ele>
        <time>2013-06-20T08:23:17Z</time>
      </trkpt>
      <trkpt lat="45.70816" lon="5.89068">
        <ele>235.21</ele>
        <time>2013-06-20T08:23:22Z</time>
      </trkpt>
      <trkpt lat="45.70837" lon="5.89075">
        <ele>235.58</ele>
        <time>2013-06-20T08:23:27Z</time>
      </trkpt>
      <trkpt lat="45.70858" lon="5.89081">
        <ele>235.95</ele>
        <time>2013-06-20T08:23:32Z</time>
      </trkpt>
      <trkpt lat="45.70877" lon="5.89086">
        <ele>236.28</ele>
        <time>2013-06-20T08:23:37Z</time>
      </trkpt>
      <trkpt lat="45.70893" lon="5.89099">
        <ele>236.59</ele>
        <time>2013-06-20T08:23:45Z</time>
      </trkpt>
      <trkpt lat="45.70891" lon="5.89128">
        <ele>236.33</ele>
        <time>2013-06-20T08:23:50Z</time>
      </trkpt>
      <trkpt lat="45.70898" lon="5.89154">
        <ele>236.26</ele>
        <time>2013-06-20T08:23:55Z</time>
      </trkpt>
      <trkpt lat="45.70905" lon="5.8918">
        <ele>236.69</ele>
        <time>2013-06-20T08:24:00Z</time>
      </trkpt>
      <trkpt lat="45.70907" lon="5.89208">
        <ele>237.64</ele>
        <time>2013-06-20T08:24:05Z</time>
      </trkpt>
      <trkpt lat="45.70909" lon="5.89234">
        <ele>238.52</ele>
        <time>2013-06-20T08:24:10Z</time>
      </trkpt>
      <trkpt lat="45.70907" lon="5.89261">
        <ele>239.14</ele>
        <time>2013-06-20T08:24:15Z</time>
      </trkpt>
      <trkpt lat="45.70903" lon="5.89291">
        <ele>239.62</ele>
        <time>2013-06-20T08:24:21Z</time>
      </trkpt>
      <trkpt lat="45.70896" lon="5.89319">
        <ele>239.93</ele>
        <time>2013-06-20T08:24:27Z</time>
      </trkpt>
      <trkpt lat="45.70888" lon="5.89346">
        <ele>240.66</ele>
        <time>2013-06-20T08:24:33Z</time>
      </trkpt>
      <trkpt lat="45.70883" lon="5.89373">
        <ele>241.01</ele>
        <time>2013-06-20T08:24:39Z</time>
      </trkpt>
      <trkpt lat="45.70866" lon="5.8939">
        <ele>241.79</ele>
        <time>2013-06-20T08:24:48Z</time>
      </trkpt>
      <trkpt lat="45.70847" lon="5.89392">
        <ele>241.65</ele>
        <time>2013-06-20T08:24:52Z</time>
      </trkpt>
      <trkpt lat="45.70828" lon="5.89392">
        <ele>241.93</ele>
        <time>2013-06-20T08:24:56Z</time>
      </trkpt>
      <trkpt lat="45.70809" lon="5.89395">
        <ele>242.25</ele>
        <time>2013-06-20T08:25:00Z</time>
      </trkpt>
      <trkpt lat="45.70798" lon="5.89422">
        <ele>242.54</ele>
        <time>2013-06-20T08:25:05Z</time>
      </trkpt>
      <trkpt lat="45.70801" lon="5.89452">
        <ele>242.82</ele>
        <time>2013-06-20T08:25:09Z</time>
      </trkpt>
      <trkpt lat="45.70802" lon="5.8948">
        <ele>243.2</ele>
        <time>2013-06-20T08:25:13Z</time>
      </trkpt>
      <trkpt lat="45.70803" lon="5.89507">
        <ele>243.5</ele>
        <time>2013-06-20T08:25:17Z</time>
      </trkpt>
      <trkpt lat="45.70805" lon="5.89533">
        <ele>243.87</ele>
        <time>2013-06-20T08:25:21Z</time>
      </trkpt>
      <trkpt lat="45.70806" lon="5.89559">
        <ele>244.14</ele>
        <time>2013-06-20T08:25:25Z</time>
      </trkpt>
      <trkpt lat="45.70808" lon="5.8959">
        <ele>244.1</ele>
        <time>2013-06-20T08:25:30Z</time>
      </trkpt>
      <trkpt lat="45.70798" lon="5.89615">
        <ele>243.7</ele>
        <time>2013-06-20T08:25:36Z</time>
      </trkpt>
      <trkpt lat="45.70778" lon="5.89626">
        <ele>243.21</ele>
        <time>2013-06-20T08:25:41Z</time>
      </trkpt>
      <trkpt lat="45.70757" lon="5.89636">
        <ele>243.38</ele>
        <time>2013-06-20T08:25:46Z</time>
      </trkpt>
      <trkpt lat="45.70737" lon="5.89643">
        <ele>243.44</ele>
        <time>2013-06-20T08:25:51Z</time>
      </trkpt>
      <trkpt lat="45.70716" lon="5.89648">
        <ele>243.56</ele>
        <time>2013-06-20T08:25:56Z</time>
      </trkpt>
      <trkpt lat="45.70694" lon="5.89655">
        <ele>244.17</ele>
        <time>2013-06-20T08:26:01Z</time>
      </trkpt>
      <trkpt lat="45.70674" lon="5.89666">
        <ele>244.9</ele>
        <time>2013-06-20T08:26:06Z</time>
      </trkpt>
      <trkpt lat="45.70655" lon="5.8968">
        <ele>245.32</ele>
        <time>2013-06-20T08:26:11Z</time>
      </trkpt>
      <trkpt lat="45.70637" lon="5.89698">
        <ele>245.58</ele>
        <time>2013-06-20T08:26:16Z</time>
      </trkpt>
      <trkpt lat="45.70623" lon="5.89721">
        <ele>245.87</ele>
        <time>2013-06-20T08:26:21Z</time>
      </trkpt>
      <trkpt lat="45.70607" lon="5.89743">
        <ele>246.14</ele>
        <time>2013-06-20T08:26:26Z</time>
      </trkpt>
      <trkpt lat="45.7059" lon="5.89761">
        <ele>246.02</ele>
        <time>2013-06-20T08:26:31Z</time>
      </trkpt>
      <trkpt lat="45.70569" lon="5.89773">
        <ele>246.17</ele>
        <time>2013-06-20T08:26:36Z</time>
      </trkpt>
      <trkpt lat="45.70553" lon="5.89784">
        <ele>246.27</ele>
        <time>2013-06-20T08:26:40Z</time>
      </trkpt>
      <trkpt lat="45.70536" lon="5.89804">
        <ele>246.26</ele>
        <time>2013-06-20T08:26:45Z</time>
      </trkpt>
      <trkpt lat="45.70527" lon="5.89827">
        <ele>246.45</ele>
        <time>2013-06-20T08:26:50Z</time>
      </trkpt>
      <trkpt lat="45.70531" lon="5.89854">
        <ele>244.02</ele>
        <time>2013-06-20T08:27:01Z</time>
      </trkpt>
      <trkpt lat="45.70538" lon="5.89881">
        <ele>244.04</ele>
        <time>2013-06-20T08:27:08Z</time>
      </trkpt>
      <trkpt lat="45.70545" lon="5.89906">
        <ele>244.9</ele>
        <time>2013-06-20T08:27:15Z</time>
      </trkpt>
      <trkpt lat="45.70558" lon="5.89928">
        <ele>246.25</ele>
        <time>2013-06-20T08:27:23Z</time>
      </trkpt>
      <trkpt lat="45.70576" lon="5.89935">
        <ele>248.9</ele>
        <time>2013-06-20T08:27:30Z</time>
      </trkpt>
      <trkpt lat="45.70595" lon="5.89941">
        <ele>251.31</ele>
        <time>2013-06-20T08:27:38Z</time>
      </trkpt>
      <trkpt lat="45.70614" lon="5.89935">
        <ele>252.98</ele>
        <time>2013-06-20T08:27:46Z</time>
      </trkpt>
      <trkpt lat="45.7063" lon="5.89922">
        <ele>254.38</ele>
        <time>2013-06-20T08:27:54Z</time>
      </trkpt>
      <trkpt lat="45.70649" lon="5.89911">
        <ele>255.81</ele>
        <time>2013-06-20T08:28:03Z</time>
      </trkpt>
      <trkpt lat="45.70668" lon="5.89905">
        <ele>256.62</ele>
        <time>2013-06-20T08:28:12Z</time>
      </trkpt>
      <trkpt lat="45.70685" lon="5.89894">
        <ele>257.19</ele>
        <time>2013-06-20T08:28:20Z</time>
      </trkpt>
      <trkpt lat="45.70699" lon="5.89877">
        <ele>257.73</ele>
        <time>2013-06-20T08:28:28Z</time>
      </trkpt>
      <trkpt lat="45.70713" lon="5.89856">
        <ele>258.96</ele>
        <time>2013-06-20T08:28:37Z</time>
      </trkpt>
      <trkpt lat="45.70729" lon="5.89839">
        <ele>260.98</ele>
        <time>2013-06-20T08:28:46Z</time>
      </trkpt>
      <trkpt lat="45.70746" lon="5.89825">
        <ele>263.03</ele>
        <time>2013-06-20T08:28:55Z</time>
      </trkpt>
      <trkpt lat="45.70761" lon="5.89809">
        <ele>265.79</ele>
        <time>2013-06-20T08:29:03Z</time>
      </trkpt>
      <trkpt lat="45.70772" lon="5.89787">
        <ele>267.1</ele>
        <time>2013-06-20T08:29:11Z</time>
      </trkpt>
      <trkpt lat="45.70782" lon="5.89763">
        <ele>268.39</ele>
        <time>2013-06-20T08:29:19Z</time>
      </trkpt>
      <trkpt lat="45.70792" lon="5.89739">
        <ele>270.3</ele>
        <time>2013-06-20T08:29:27Z</time>
      </trkpt>
      <trkpt lat="45.70803" lon="5.89716">
        <ele>273.75</ele>
        <time>2013-06-20T08:29:35Z</time>
      </trkpt>
      <trkpt lat="45.70816" lon="5.89698">
        <ele>276.03</ele>
        <time>2013-06-20T08:29:43Z</time>
      </trkpt>
      <trkpt lat="45.70833" lon="5.89684">
        <ele>278.27</ele>
        <time>2013-06-20T08:29:52Z</time>
      </trkpt>
      <trkpt lat="45.7085" lon="5.89673">
        <ele>279.34</ele>
        <time>2013-06-20T08:30:00Z</time>
      </trkpt>
      <trkpt lat="45.70868" lon="5.89658">
        <ele>281.04</ele>
        <time>2013-06-20T08:30:09Z</time>
      </trkpt>
      <trkpt lat="45.70884" lon="5.89642">
        <ele>283.55</ele>
        <time>2013-06-20T08:30:18Z</time>
      </trkpt>
      <trkpt lat="45.70902" lon="5.89635">
        <ele>286.24</ele>
        <time>2013-06-20T08:30:27Z</time>
      </trkpt>
      <trkpt lat="45.70921" lon="5.8963">
        <ele>288.37</ele>
        <time>2013-06-20T08:30:36Z</time>
      </trkpt>
      <trkpt lat="45.7094" lon="5.89629">
        <ele>290.07</ele>
        <time>2013-06-20T08:30:44Z</time>
      </trkpt>
      <trkpt lat="45.70958" lon="5.89626">
        <ele>292.98</ele>
        <time>2013-06-20T08:30:52Z</time>
      </trkpt>
      <trkpt lat="45.70977" lon="5.89629">
        <ele>295.79</ele>
        <time>2013-06-20T08:31:00Z</time>
      </trkpt>
      <trkpt lat="45.70996" lon="5.89629">
        <ele>297.56</ele>
        <time>2013-06-20T08:31:09Z</time>
      </trkpt>
      <trkpt lat="45.71016" lon="5.89629">
        <ele>298.65</ele>
        <time>2013-06-20T08:31:16Z</time>
      </trkpt>
      <trkpt lat="45.71035" lon="5.89626">
        <ele>300.37</ele>
        <time>2013-06-20T08:31:25Z</time>
      </trkpt>
      <trkpt lat="45.71053" lon="5.89624">
        <ele>301.69</ele>
        <time>2013-06-20T08:31:33Z</time>
      </trkpt>
      <trkpt lat="45.71073" lon="5.8962">
        <ele>303.25</ele>
        <time>2013-06-20T08:31:41Z</time>
      </trkpt>
      <trkpt lat="45.71089" lon="5.89608">
        <ele>304.74</ele>
        <time>2013-06-20T08:31:48Z</time>
      </trkpt>
      <trkpt lat="45.71105" lon="5.89591">
        <ele>305.81</ele>
        <time>2013-06-20T08:31:54Z</time>
      </trkpt>
      <trkpt lat="45.71117" lon="5.8957">
        <ele>307</ele>
        <time>2013-06-20T08:32:02Z</time>
      </trkpt>
      <trkpt lat="45.7113" lon="5.89591">
        <ele>308.39</ele>
        <time>2013-06-20T08:32:54Z</time>
      </trkpt>
      <trkpt lat="45.71114" lon="5.89605">
        <ele>308.45</ele>
        <time>2013-06-20T08:33:01Z</time>
      </trkpt>
      <trkpt lat="45.71096" lon="5.8962">
        <ele>308.88</ele>
        <time>2013-06-20T08:33:08Z</time>
      </trkpt>
      <trkpt lat="45.7108" lon="5.89635">
        <ele>309.66</ele>
        <time>2013-06-20T08:33:15Z</time>
      </trkpt>
      <trkpt lat="45.71064" lon="5.89648">
        <ele>311.28</ele>
        <time>2013-06-20T08:33:23Z</time>
      </trkpt>
      <trkpt lat="45.71048" lon="5.8966">
        <ele>312.34</ele>
        <time>2013-06-20T08:33:30Z</time>
      </trkpt>
      <trkpt lat="45.71035" lon="5.89681">
        <ele>313.01</ele>
        <time>2013-06-20T08:33:36Z</time>
      </trkpt>
      <trkpt lat="45.71027" lon="5.89704">
        <ele>314.01</ele>
        <time>2013-06-20T08:33:42Z</time>
      </trkpt>
      <trkpt lat="45.71025" lon="5.89731">
        <ele>315.59</ele>
        <time>2013-06-20T08:33:48Z</time>
      </trkpt>
      <trkpt lat="45.71025" lon="5.89757">
        <ele>316.92</ele>
        <time>2013-06-20T08:33:54Z</time>
      </trkpt>
      <trkpt lat="45.71025" lon="5.89785">
        <ele>317.91</ele>
        <time>2013-06-20T08:34:01Z</time>
      </trkpt>
      <trkpt lat="45.71022" lon="5.89813">
        <ele>320.44</ele>
        <time>2013-06-20T08:34:08Z</time>
      </trkpt>
      <trkpt lat="45.71016" lon="5.8984">
        <ele>322.97</ele>
        <time>2013-06-20T08:34:15Z</time>
      </trkpt>
      <trkpt lat="45.7101" lon="5.89865">
        <ele>325.12</ele>
        <time>2013-06-20T08:34:21Z</time>
      </trkpt>
      <trkpt lat="45.71004" lon="5.89891">
        <ele>325.87</ele>
        <time>2013-06-20T08:34:27Z</time>
      </trkpt>
      <trkpt lat="45.70996" lon="5.89916">
        <ele>326.39</ele>
        <time>2013-06-20T08:34:32Z</time>
      </trkpt>
      <trkpt lat="45.70988" lon="5.89944">
        <ele>326.24</ele>
        <time>2013-06-20T08:34:37Z</time>
      </trkpt>
      <trkpt lat="45.70981" lon="5.89968">
        <ele>326.16</ele>
        <time>2013-06-20T08:34:41Z</time>
      </trkpt>
      <trkpt lat="45.70974" lon="5.89998">
        <ele>326.52</ele>
        <time>2013-06-20T08:34:46Z</time>
      </trkpt>
      <trkpt lat="45.70971" lon="5.90026">
        <ele>326.7</ele>
        <time>2013-06-20T08:34:50Z</time>
      </trkpt>
      <trkpt lat="45.70978" lon="5.90053">
        <ele>327.37</ele>
        <time>2013-06-20T08:34:55Z</time>
      </trkpt>
      <trkpt lat="45.70997" lon="5.90038">
        <ele>326.8</ele>
        <time>2013-06-20T08:35:00Z</time>
      </trkpt>
      <trkpt lat="45.71008" lon="5.90011">
        <ele>325.44</ele>
        <time>2013-06-20T08:35:04Z</time>
      </trkpt>
      <trkpt lat="45.71013" lon="5.89982">
        <ele>324.09</ele>
        <time>2013-06-20T08:35:11Z</time>
      </trkpt>
      <trkpt lat="45.71027" lon="5.8996">
        <ele>324.71</ele>
        <time>2013-06-20T08:35:18Z</time>
      </trkpt>
      <trkpt lat="45.71043" lon="5.89943">
        <ele>326.39</ele>
        <time>2013-06-20T08:35:25Z</time>
      </trkpt>
      <trkpt lat="45.71058" lon="5.89927">
        <ele>328.68</ele>
        <time>2013-06-20T08:35:31Z</time>
      </trkpt>
      <trkpt lat="45.71078" lon="5.89932">
        <ele>332.43</ele>
        <time>2013-06-20T08:35:39Z</time>
      </trkpt>
      <trkpt lat="45.71089" lon="5.89955">
        <ele>335.36</ele>
        <time>2013-06-20T08:35:46Z</time>
      </trkpt>
      <trkpt lat="45.71095" lon="5.89981">
        <ele>338.1</ele>
        <time>2013-06-20T08:35:53Z</time>
      </trkpt>
      <trkpt lat="45.71094" lon="5.90008">
        <ele>340.24</ele>
        <time>2013-06-20T08:35:59Z</time>
      </trkpt>
      <trkpt lat="45.71095" lon="5.90035">
        <ele>342.28</ele>
        <time>2013-06-20T08:36:05Z</time>
      </trkpt>
      <trkpt lat="45.71097" lon="5.90061">
        <ele>344.08</ele>
        <time>2013-06-20T08:36:11Z</time>
      </trkpt>
      <trkpt lat="45.71103" lon="5.90089">
        <ele>345.82</ele>
        <time>2013-06-20T08:36:17Z</time>
      </trkpt>
      <trkpt lat="45.7111" lon="5.90113">
        <ele>347.81</ele>
        <time>2013-06-20T08:36:23Z</time>
      </trkpt>
      <trkpt lat="45.71116" lon="5.90138">
        <ele>349.35</ele>
        <time>2013-06-20T08:36:28Z</time>
      </trkpt>
      <trkpt lat="45.71122" lon="5.90163">
        <ele>350.25</ele>
        <time>2013-06-20T08:36:33Z</time>
      </trkpt>
      <trkpt lat="45.71127" lon="5.90191">
        <ele>351.75</ele>
        <time>2013-06-20T08:36:38Z</time>
      </trkpt>
      <trkpt lat="45.71141" lon="5.90213">
        <ele>353.1</ele>
        <time>2013-06-20T08:36:43Z</time>
      </trkpt>
      <trkpt lat="45.71159" lon="5.90219">
        <ele>354.4</ele>
        <time>2013-06-20T08:36:48Z</time>
      </trkpt>
      <trkpt lat="45.71179" lon="5.90208">
        <ele>354.92</ele>
        <time>2013-06-20T08:36:53Z</time>
      </trkpt>
      <trkpt lat="45.71195" lon="5.90197">
        <ele>354.94</ele>
        <time>2013-06-20T08:36:58Z</time>
      </trkpt>
      <trkpt lat="45.71212" lon="5.90187">
        <ele>355.51</ele>
        <time>2013-06-20T08:37:03Z</time>
      </trkpt>
      <trkpt lat="45.7123" lon="5.90178">
        <ele>355.61</ele>
        <time>2013-06-20T08:37:08Z</time>
      </trkpt>
      <trkpt lat="45.71248" lon="5.90168">
        <ele>355.99</ele>
        <time>2013-06-20T08:37:14Z</time>
      </trkpt>
      <trkpt lat="45.71265" lon="5.90155">
        <ele>356.28</ele>
        <time>2013-06-20T08:37:20Z</time>
      </trkpt>
      <trkpt lat="45.71283" lon="5.9014">
        <ele>357.66</ele>
        <time>2013-06-20T08:37:26Z</time>
      </trkpt>
      <trkpt lat="45.71296" lon="5.90119">
        <ele>357.98</ele>
        <time>2013-06-20T08:37:32Z</time>
      </trkpt>
      <trkpt lat="45.71309" lon="5.90101">
        <ele>359.8</ele>
        <time>2013-06-20T08:37:45Z</time>
      </trkpt>
      <trkpt lat="45.71323" lon="5.9012">
        <ele>363.79</ele>
        <time>2013-06-20T08:40:51Z</time>
      </trkpt>
      <trkpt lat="45.71344" lon="5.9012">
        <ele>365.57</ele>
        <time>2013-06-20T08:40:58Z</time>
      </trkpt>
      <trkpt lat="45.71363" lon="5.90121">
        <ele>367.27</ele>
        <time>2013-06-20T08:41:05Z</time>
      </trkpt>
      <trkpt lat="45.71383" lon="5.90117">
        <ele>369.31</ele>
        <time>2013-06-20T08:41:12Z</time>
      </trkpt>
      <trkpt lat="45.71404" lon="5.90114">
        <ele>370.17</ele>
        <time>2013-06-20T08:41:18Z</time>
      </trkpt>
      <trkpt lat="45.71424" lon="5.90111">
        <ele>371.09</ele>
        <time>2013-06-20T08:41:24Z</time>
      </trkpt>
      <trkpt lat="45.71442" lon="5.9011">
        <ele>371.64</ele>
        <time>2013-06-20T08:41:30Z</time>
      </trkpt>
      <trkpt lat="45.71461" lon="5.90108">
        <ele>372.61</ele>
        <time>2013-06-20T08:41:35Z</time>
      </trkpt>
      <trkpt lat="45.71479" lon="5.90106">
        <ele>373.81</ele>
        <time>2013-06-20T08:41:41Z</time>
      </trkpt>
      <trkpt lat="45.71498" lon="5.901">
        <ele>374.82</ele>
        <time>2013-06-20T08:41:47Z</time>
      </trkpt>
      <trkpt lat="45.71519" lon="5.90097">
        <ele>375.4</ele>
        <time>2013-06-20T08:41:53Z</time>
      </trkpt>
      <trkpt lat="45.71539" lon="5.90093">
        <ele>374.91</ele>
        <time>2013-06-20T08:41:59Z</time>
      </trkpt>
      <trkpt lat="45.71558" lon="5.90087">
        <ele>374.2</ele>
        <time>2013-06-20T08:42:04Z</time>
      </trkpt>
      <trkpt lat="45.71574" lon="5.90073">
        <ele>372.92</ele>
        <time>2013-06-20T08:42:09Z</time>
      </trkpt>
      <trkpt lat="45.7159" lon="5.90056">
        <ele>371.37</ele>
        <time>2013-06-20T08:42:15Z</time>
      </trkpt>
      <trkpt lat="45.71608" lon="5.90054">
        <ele>369.98</ele>
        <time>2013-06-20T08:42:23Z</time>
      </trkpt>
      <trkpt lat="45.71628" lon="5.90049">
        <ele>369.84</ele>
        <time>2013-06-20T08:42:32Z</time>
      </trkpt>
      <trkpt lat="45.71643" lon="5.9003">
        <ele>371.13</ele>
        <time>2013-06-20T08:42:39Z</time>
      </trkpt>
      <trkpt lat="45.7166" lon="5.90018">
        <ele>371.75</ele>
        <time>2013-06-20T08:42:46Z</time>
      </trkpt>
      <trkpt lat="45.71678" lon="5.90012">
        <ele>372.77</ele>
        <time>2013-06-20T08:42:52Z</time>
      </trkpt>
      <trkpt lat="45.71698" lon="5.90005">
        <ele>374.57</ele>
        <time>2013-06-20T08:42:59Z</time>
      </trkpt>
      <trkpt lat="45.71716" lon="5.89993">
        <ele>375.15</ele>
        <time>2013-06-20T08:43:05Z</time>
      </trkpt>
      <trkpt lat="45.71735" lon="5.89984">
        <ele>375.85</ele>
        <time>2013-06-20T08:43:12Z</time>
      </trkpt>
      <trkpt lat="45.71754" lon="5.89972">
        <ele>376.27</ele>
        <time>2013-06-20T08:43:20Z</time>
      </trkpt>
      <trkpt lat="45.71767" lon="5.89952">
        <ele>376.74</ele>
        <time>2013-06-20T08:43:27Z</time>
      </trkpt>
      <trkpt lat="45.71777" lon="5.8993">
        <ele>378.02</ele>
        <time>2013-06-20T08:43:34Z</time>
      </trkpt>
      <trkpt lat="45.71792" lon="5.89914">
        <ele>379.7</ele>
        <time>2013-06-20T08:43:41Z</time>
      </trkpt>
      <trkpt lat="45.7181" lon="5.899">
        <ele>381.72</ele>
        <time>2013-06-20T08:43:49Z</time>
      </trkpt>
      <trkpt lat="45.71826" lon="5.89889">
        <ele>383.91</ele>
        <time>2013-06-20T08:43:57Z</time>
      </trkpt>
      <trkpt lat="45.71844" lon="5.89879">
        <ele>387.66</ele>
        <time>2013-06-20T08:44:08Z</time>
      </trkpt>
      <trkpt lat="45.71862" lon="5.89874">
        <ele>391.72</ele>
        <time>2013-06-20T08:44:34Z</time>
      </trkpt>
      <trkpt lat="45.71882" lon="5.89869">
        <ele>392.98</ele>
        <time>2013-06-20T08:44:42Z</time>
      </trkpt>
      <trkpt lat="45.719" lon="5.89864">
        <ele>394.17</ele>
        <time>2013-06-20T08:44:49Z</time>
      </trkpt>
      <trkpt lat="45.7192" lon="5.89862">
        <ele>394.84</ele>
        <time>2013-06-20T08:44:57Z</time>
      </trkpt>
      <trkpt lat="45.7194" lon="5.89861">
        <ele>396.08</ele>
        <time>2013-06-20T08:45:04Z</time>
      </trkpt>
      <trkpt lat="45.71958" lon="5.89861">
        <ele>397.1</ele>
        <time>2013-06-20T08:45:11Z</time>
      </trkpt>
      <trkpt lat="45.71978" lon="5.89861">
        <ele>397.47</ele>
        <time>2013-06-20T08:45:19Z</time>
      </trkpt>
      <trkpt lat="45.71998" lon="5.8986">
        <ele>398.83</ele>
        <time>2013-06-20T08:45:27Z</time>
      </trkpt>
      <trkpt lat="45.72018" lon="5.89861">
        <ele>400.49</ele>
        <time>2013-06-20T08:45:36Z</time>
      </trkpt>
      <trkpt lat="45.72038" lon="5.8986">
        <ele>401.75</ele>
        <time>2013-06-20T08:45:45Z</time>
      </trkpt>
      <trkpt lat="45.72057" lon="5.89858">
        <ele>403.85</ele>
        <time>2013-06-20T08:45:53Z</time>
      </trkpt>
      <trkpt lat="45.72076" lon="5.89856">
        <ele>405.08</ele>
        <time>2013-06-20T08:46:01Z</time>
      </trkpt>
      <trkpt lat="45.72095" lon="5.89855">
        <ele>406</ele>
        <time>2013-06-20T08:46:09Z</time>
      </trkpt>
      <trkpt lat="45.72114" lon="5.89855">
        <ele>407.86</ele>
        <time>2013-06-20T08:46:16Z</time>
      </trkpt>
      <trkpt lat="45.72134" lon="5.89855">
        <ele>409.13</ele>
        <time>2013-06-20T08:46:24Z</time>
      </trkpt>
      <trkpt lat="45.72153" lon="5.89854">
        <ele>410.97</ele>
        <time>2013-06-20T08:46:32Z</time>
      </trkpt>
      <trkpt lat="45.72173" lon="5.89856">
        <ele>413.98</ele>
        <time>2013-06-20T08:46:40Z</time>
      </trkpt>
      <trkpt lat="45.72193" lon="5.89857">
        <ele>416.34</ele>
        <time>2013-06-20T08:46:48Z</time>
      </trkpt>
      <trkpt lat="45.72212" lon="5.89857">
        <ele>417.52</ele>
        <time>2013-06-20T08:46:56Z</time>
      </trkpt>
      <trkpt lat="45.72229" lon="5.89867">
        <ele>419.58</ele>
        <time>2013-06-20T08:47:04Z</time>
      </trkpt>
      <trkpt lat="45.72247" lon="5.89859">
        <ele>422.38</ele>
        <time>2013-06-20T08:47:21Z</time>
      </trkpt>
      <trkpt lat="45.72264" lon="5.89843">
        <ele>421.77</ele>
        <time>2013-06-20T08:47:30Z</time>
      </trkpt>
      <trkpt lat="45.72281" lon="5.89828">
        <ele>420.2</ele>
        <time>2013-06-20T08:47:37Z</time>
      </trkpt>
      <trkpt lat="45.723" lon="5.8982">
        <ele>415.65</ele>
        <time>2013-06-20T08:47:54Z</time>
      </trkpt>
      <trkpt lat="45.72315" lon="5.89804">
        <ele>411.4</ele>
        <time>2013-06-20T08:48:10Z</time>
      </trkpt>
      <trkpt lat="45.72332" lon="5.89796">
        <ele>408.36</ele>
        <time>2013-06-20T08:48:20Z</time>
      </trkpt>
      <trkpt lat="45.72349" lon="5.89783">
        <ele>406.51</ele>
        <time>2013-06-20T08:48:26Z</time>
      </trkpt>
      <trkpt lat="45.72368" lon="5.89772">
        <ele>404.72</ele>
        <time>2013-06-20T08:48:32Z</time>
      </trkpt>
      <trkpt lat="45.72385" lon="5.89761">
        <ele>403.06</ele>
        <time>2013-06-20T08:48:38Z</time>
      </trkpt>
      <trkpt lat="45.72403" lon="5.89753">
        <ele>396.07</ele>
        <time>2013-06-20T08:52:00Z</time>
      </trkpt>
      <trkpt lat="45.72419" lon="5.89736">
        <ele>379.45</ele>
        <time>2013-06-20T08:53:07Z</time>
      </trkpt>
      <trkpt lat="45.72439" lon="5.89714">
        <ele>376.51</ele>
        <time>2013-06-20T08:53:11Z</time>
      </trkpt>
      <trkpt lat="45.72455" lon="5.897">
        <ele>375.37</ele>
        <time>2013-06-20T08:53:13Z</time>
      </trkpt>
      <trkpt lat="45.72472" lon="5.89688">
        <ele>373.99</ele>
        <time>2013-06-20T08:53:17Z</time>
      </trkpt>
      <trkpt lat="45.7247" lon="5.89715">
        <ele>367.4</ele>
        <time>2013-06-20T09:00:54Z</time>
      </trkpt>
      <trkpt lat="45.72482" lon="5.89738">
        <ele>365.85</ele>
        <time>2013-06-20T09:01:03Z</time>
      </trkpt>
      <trkpt lat="45.72492" lon="5.89759">
        <ele>365.55</ele>
        <time>2013-06-20T09:01:10Z</time>
      </trkpt>
      <trkpt lat="45.72501" lon="5.89783">
        <ele>366.25</ele>
        <time>2013-06-20T09:01:17Z</time>
      </trkpt>
      <trkpt lat="45.72511" lon="5.89808">
        <ele>365.75</ele>
        <time>2013-06-20T09:01:25Z</time>
      </trkpt>
      <trkpt lat="45.7253" lon="5.89814">
        <ele>366.42</ele>
        <time>2013-06-20T09:01:34Z</time>
      </trkpt>
      <trkpt lat="45.7255" lon="5.89815">
        <ele>366.65</ele>
        <time>2013-06-20T09:01:39Z</time>
      </trkpt>
      <trkpt lat="45.72569" lon="5.89817">
        <ele>367.02</ele>
        <time>2013-06-20T09:01:44Z</time>
      </trkpt>
      <trkpt lat="45.7259" lon="5.89818">
        <ele>367.46</ele>
        <time>2013-06-20T09:01:49Z</time>
      </trkpt>
      <trkpt lat="45.72606" lon="5.89831">
        <ele>368.34</ele>
        <time>2013-06-20T09:01:54Z</time>
      </trkpt>
      <trkpt lat="45.72613" lon="5.8986">
        <ele>369.04</ele>
        <time>2013-06-20T09:02:01Z</time>
      </trkpt>
      <trkpt lat="45.7262" lon="5.89885">
        <ele>370.25</ele>
        <time>2013-06-20T09:02:07Z</time>
      </trkpt>
      <trkpt lat="45.72638" lon="5.89895">
        <ele>372.94</ele>
        <time>2013-06-20T09:02:22Z</time>
      </trkpt>
      <trkpt lat="45.72656" lon="5.89898">
        <ele>374.84</ele>
        <time>2013-06-20T09:02:31Z</time>
      </trkpt>
      <trkpt lat="45.72675" lon="5.89897">
        <ele>375.85</ele>
        <time>2013-06-20T09:02:41Z</time>
      </trkpt>
      <trkpt lat="45.72693" lon="5.89891">
        <ele>378.27</ele>
        <time>2013-06-20T09:02:52Z</time>
      </trkpt>
      <trkpt lat="45.72712" lon="5.8989">
        <ele>382.29</ele>
        <time>2013-06-20T09:03:12Z</time>
      </trkpt>
      <trkpt lat="45.72729" lon="5.8988">
        <ele>383.74</ele>
        <time>2013-06-20T09:03:27Z</time>
      </trkpt>
      <trkpt lat="45.72743" lon="5.89863">
        <ele>391.69</ele>
        <time>2013-06-20T09:04:08Z</time>
      </trkpt>
      <trkpt lat="45.72762" lon="5.89865">
        <ele>392.18</ele>
        <time>2013-06-20T09:04:19Z</time>
      </trkpt>
      <trkpt lat="45.72781" lon="5.89863">
        <ele>392.73</ele>
        <time>2013-06-20T09:04:27Z</time>
      </trkpt>
      <trkpt lat="45.728" lon="5.89864">
        <ele>394.24</ele>
        <time>2013-06-20T09:04:35Z</time>
      </trkpt>
      <trkpt lat="45.72819" lon="5.89866">
        <ele>395.14</ele>
        <time>2013-06-20T09:04:44Z</time>
      </trkpt>
      <trkpt lat="45.72837" lon="5.89873">
        <ele>395.82</ele>
        <time>2013-06-20T09:04:52Z</time>
      </trkpt>
      <trkpt lat="45.72854" lon="5.89886">
        <ele>396.76</ele>
        <time>2013-06-20T09:05:00Z</time>
      </trkpt>
      <trkpt lat="45.72872" lon="5.8989">
        <ele>398.02</ele>
        <time>2013-06-20T09:05:09Z</time>
      </trkpt>
      <trkpt lat="45.72893" lon="5.89893">
        <ele>399.25</ele>
        <time>2013-06-20T09:05:18Z</time>
      </trkpt>
      <trkpt lat="45.72911" lon="5.89895">
        <ele>401.16</ele>
        <time>2013-06-20T09:05:26Z</time>
      </trkpt>
      <trkpt lat="45.72931" lon="5.89899">
        <ele>402.53</ele>
        <time>2013-06-20T09:05:35Z</time>
      </trkpt>
      <trkpt lat="45.72952" lon="5.89904">
        <ele>404.2</ele>
        <time>2013-06-20T09:05:44Z</time>
      </trkpt>
      <trkpt lat="45.7297" lon="5.89901">
        <ele>407.07</ele>
        <time>2013-06-20T09:05:51Z</time>
      </trkpt>
      <trkpt lat="45.72991" lon="5.89897">
        <ele>408.68</ele>
        <time>2013-06-20T09:05:58Z</time>
      </trkpt>
      <trkpt lat="45.73012" lon="5.89898">
        <ele>409.52</ele>
        <time>2013-06-20T09:06:05Z</time>
      </trkpt>
      <trkpt lat="45.7303" lon="5.89901">
        <ele>410.22</ele>
        <time>2013-06-20T09:06:11Z</time>
      </trkpt>
      <trkpt lat="45.7305" lon="5.89902">
        <ele>411.65</ele>
        <time>2013-06-20T09:06:17Z</time>
      </trkpt>
      <trkpt lat="45.73068" lon="5.89906">
        <ele>412.7</ele>
        <time>2013-06-20T09:06:23Z</time>
      </trkpt>
      <trkpt lat="45.73086" lon="5.89917">
        <ele>413.51</ele>
        <time>2013-06-20T09:06:30Z</time>
      </trkpt>
      <trkpt lat="45.73107" lon="5.89919">
        <ele>414.35</ele>
        <time>2013-06-20T09:06:37Z</time>
      </trkpt>
      <trkpt lat="45.73127" lon="5.89915">
        <ele>415.08</ele>
        <time>2013-06-20T09:06:43Z</time>
      </trkpt>
      <trkpt lat="45.73146" lon="5.89915">
        <ele>415.66</ele>
        <time>2013-06-20T09:06:48Z</time>
      </trkpt>
      <trkpt lat="45.73166" lon="5.89913">
        <ele>414.75</ele>
        <time>2013-06-20T09:06:53Z</time>
      </trkpt>
      <trkpt lat="45.73185" lon="5.89922">
        <ele>412.98</ele>
        <time>2013-06-20T09:06:58Z</time>
      </trkpt>
      <trkpt lat="45.73198" lon="5.89941">
        <ele>412.73</ele>
        <time>2013-06-20T09:07:03Z</time>
      </trkpt>
      <trkpt lat="45.7321" lon="5.89962">
        <ele>413.35</ele>
        <time>2013-06-20T09:07:09Z</time>
      </trkpt>
      <trkpt lat="45.73218" lon="5.89987">
        <ele>414</ele>
        <time>2013-06-20T09:07:17Z</time>
      </trkpt>
      <trkpt lat="45.73235" lon="5.89999">
        <ele>415.53</ele>
        <time>2013-06-20T09:07:26Z</time>
      </trkpt>
      <trkpt lat="45.73252" lon="5.90001">
        <ele>418.79</ele>
        <time>2013-06-20T09:07:33Z</time>
      </trkpt>
      <trkpt lat="45.73272" lon="5.90002">
        <ele>420.95</ele>
        <time>2013-06-20T09:07:42Z</time>
      </trkpt>
      <trkpt lat="45.73292" lon="5.90002">
        <ele>423.08</ele>
        <time>2013-06-20T09:07:50Z</time>
      </trkpt>
      <trkpt lat="45.73311" lon="5.9">
        <ele>424.32</ele>
        <time>2013-06-20T09:07:58Z</time>
      </trkpt>
      <trkpt lat="45.73329" lon="5.89998">
        <ele>425.69</ele>
        <time>2013-06-20T09:08:06Z</time>
      </trkpt>
      <trkpt lat="45.73347" lon="5.89997">
        <ele>427.95</ele>
        <time>2013-06-20T09:08:14Z</time>
      </trkpt>
      <trkpt lat="45.73365" lon="5.89991">
        <ele>429.2</ele>
        <time>2013-06-20T09:08:24Z</time>
      </trkpt>
      <trkpt lat="45.73383" lon="5.89986">
        <ele>430.26</ele>
        <time>2013-06-20T09:08:32Z</time>
      </trkpt>
      <trkpt lat="45.73402" lon="5.89981">
        <ele>431.11</ele>
        <time>2013-06-20T09:08:39Z</time>
      </trkpt>
      <trkpt lat="45.73421" lon="5.89973">
        <ele>431.3</ele>
        <time>2013-06-20T09:08:48Z</time>
      </trkpt>
      <trkpt lat="45.73438" lon="5.89963">
        <ele>432.02</ele>
        <time>2013-06-20T09:08:56Z</time>
      </trkpt>
      <trkpt lat="45.73458" lon="5.89963">
        <ele>432.9</ele>
        <time>2013-06-20T09:09:05Z</time>
      </trkpt>
      <trkpt lat="45.73475" lon="5.89969">
        <ele>434.07</ele>
        <time>2013-06-20T09:09:15Z</time>
      </trkpt>
      <trkpt lat="45.73494" lon="5.89971">
        <ele>434.77</ele>
        <time>2013-06-20T09:09:25Z</time>
      </trkpt>
      <trkpt lat="45.73513" lon="5.89971">
        <ele>436.73</ele>
        <time>2013-06-20T09:09:34Z</time>
      </trkpt>
      <trkpt lat="45.73533" lon="5.89971">
        <ele>437.98</ele>
        <time>2013-06-20T09:09:43Z</time>
      </trkpt>
      <trkpt lat="45.73552" lon="5.89969">
        <ele>438.86</ele>
        <time>2013-06-20T09:09:50Z</time>
      </trkpt>
      <trkpt lat="45.73571" lon="5.89966">
        <ele>441.35</ele>
        <time>2013-06-20T09:09:59Z</time>
      </trkpt>
      <trkpt lat="45.7359" lon="5.89961">
        <ele>443.38</ele>
        <time>2013-06-20T09:10:08Z</time>
      </trkpt>
      <trkpt lat="45.73609" lon="5.89957">
        <ele>448.45</ele>
        <time>2013-06-20T09:10:15Z</time>
      </trkpt>
      <trkpt lat="45.73628" lon="5.89952">
        <ele>452.42</ele>
        <time>2013-06-20T09:10:22Z</time>
      </trkpt>
      <trkpt lat="45.73646" lon="5.89947">
        <ele>455.1</ele>
        <time>2013-06-20T09:10:30Z</time>
      </trkpt>
      <trkpt lat="45.73664" lon="5.89941">
        <ele>457.72</ele>
        <time>2013-06-20T09:10:38Z</time>
      </trkpt>
      <trkpt lat="45.73683" lon="5.89939">
        <ele>460.39</ele>
        <time>2013-06-20T09:10:48Z</time>
      </trkpt>
      <trkpt lat="45.73703" lon="5.89937">
        <ele>462.05</ele>
        <time>2013-06-20T09:10:57Z</time>
      </trkpt>
      <trkpt lat="45.73722" lon="5.89937">
        <ele>463.74</ele>
        <time>2013-06-20T09:11:06Z</time>
      </trkpt>
      <trkpt lat="45.7374" lon="5.89937">
        <ele>466.75</ele>
        <time>2013-06-20T09:11:15Z</time>
      </trkpt>
      <trkpt lat="45.7376" lon="5.89938">
        <ele>469.8</ele>
        <time>2013-06-20T09:11:25Z</time>
      </trkpt>
      <trkpt lat="45.73779" lon="5.89939">
        <ele>471.86</ele>
        <time>2013-06-20T09:11:35Z</time>
      </trkpt>
      <trkpt lat="45.73798" lon="5.89945">
        <ele>472.67</ele>
        <time>2013-06-20T09:11:46Z</time>
      </trkpt>
      <trkpt lat="45.73816" lon="5.89946">
        <ele>474.27</ele>
        <time>2013-06-20T09:11:57Z</time>
      </trkpt>
      <trkpt lat="45.73835" lon="5.89945">
        <ele>475.41</ele>
        <time>2013-06-20T09:12:07Z</time>
      </trkpt>
      <trkpt lat="45.73853" lon="5.89935">
        <ele>477.87</ele>
        <time>2013-06-20T09:12:18Z</time>
      </trkpt>
      <trkpt lat="45.7387" lon="5.89923">
        <ele>479.59</ele>
        <time>2013-06-20T09:12:30Z</time>
      </trkpt>
      <trkpt lat="45.73889" lon="5.8992">
        <ele>481.78</ele>
        <time>2013-06-20T09:12:40Z</time>
      </trkpt>
      <trkpt lat="45.73907" lon="5.89914">
        <ele>485.57</ele>
        <time>2013-06-20T09:13:13Z</time>
      </trkpt>
      <trkpt lat="45.73924" lon="5.89901">
        <ele>488.95</ele>
        <time>2013-06-20T09:13:34Z</time>
      </trkpt>
      <trkpt lat="45.7394" lon="5.89889">
        <ele>490.8</ele>
        <time>2013-06-20T09:13:47Z</time>
      </trkpt>
      <trkpt lat="45.73958" lon="5.89883">
        <ele>493.19</ele>
        <time>2013-06-20T09:13:58Z</time>
      </trkpt>
      <trkpt lat="45.73977" lon="5.89879">
        <ele>496.39</ele>
        <time>2013-06-20T09:14:08Z</time>
      </trkpt>
      <trkpt lat="45.73995" lon="5.89877">
        <ele>500.3</ele>
        <time>2013-06-20T09:14:20Z</time>
      </trkpt>
      <trkpt lat="45.74015" lon="5.89875">
        <ele>502.72</ele>
        <time>2013-06-20T09:14:30Z</time>
      </trkpt>
      <trkpt lat="45.74034" lon="5.89871">
        <ele>506.47</ele>
        <time>2013-06-20T09:14:41Z</time>
      </trkpt>
      <trkpt lat="45.74051" lon="5.89861">
        <ele>507.24</ele>
        <time>2013-06-20T09:14:52Z</time>
      </trkpt>
      <trkpt lat="45.74064" lon="5.89842">
        <ele>510.07</ele>
        <time>2013-06-20T09:15:05Z</time>
      </trkpt>
      <trkpt lat="45.74077" lon="5.89824">
        <ele>515.21</ele>
        <time>2013-06-20T09:15:18Z</time>
      </trkpt>
      <trkpt lat="45.74095" lon="5.89814">
        <ele>518.72</ele>
        <time>2013-06-20T09:16:53Z</time>
      </trkpt>
      <trkpt lat="45.74111" lon="5.89801">
        <ele>522.74</ele>
        <time>2013-06-20T09:17:05Z</time>
      </trkpt>
      <trkpt lat="45.74129" lon="5.89795">
        <ele>525.64</ele>
        <time>2013-06-20T09:17:15Z</time>
      </trkpt>
      <trkpt lat="45.74146" lon="5.89787">
        <ele>529.02</ele>
        <time>2013-06-20T09:17:25Z</time>
      </trkpt>
      <trkpt lat="45.74164" lon="5.8978">
        <ele>531.84</ele>
        <time>2013-06-20T09:17:34Z</time>
      </trkpt>
      <trkpt lat="45.74181" lon="5.8977">
        <ele>534.76</ele>
        <time>2013-06-20T09:17:45Z</time>
      </trkpt>
      <trkpt lat="45.74198" lon="5.89759">
        <ele>539.34</ele>
        <time>2013-06-20T09:17:57Z</time>
      </trkpt>
      <trkpt lat="45.74214" lon="5.89745">
        <ele>541.19</ele>
        <time>2013-06-20T09:18:07Z</time>
      </trkpt>
      <trkpt lat="45.74232" lon="5.89737">
        <ele>543.39</ele>
        <time>2013-06-20T09:18:18Z</time>
      </trkpt>
      <trkpt lat="45.74251" lon="5.89732">
        <ele>545.24</ele>
        <time>2013-06-20T09:18:28Z</time>
      </trkpt>
      <trkpt lat="45.7427" lon="5.8973">
        <ele>548.73</ele>
        <time>2013-06-20T09:18:40Z</time>
      </trkpt>
      <trkpt lat="45.74288" lon="5.89722">
        <ele>551.68</ele>
        <time>2013-06-20T09:18:51Z</time>
      </trkpt>
      <trkpt lat="45.74304" lon="5.8971">
        <ele>552.42</ele>
        <time>2013-06-20T09:19:01Z</time>
      </trkpt>
      <trkpt lat="45.74323" lon="5.89706">
        <ele>554.84</ele>
        <time>2013-06-20T09:19:12Z</time>
      </trkpt>
      <trkpt lat="45.74341" lon="5.89699">
        <ele>557.89</ele>
        <time>2013-06-20T09:19:23Z</time>
      </trkpt>
      <trkpt lat="45.74359" lon="5.89692">
        <ele>560.97</ele>
        <time>2013-06-20T09:19:33Z</time>
      </trkpt>
      <trkpt lat="45.74376" lon="5.89683">
        <ele>563.27</ele>
        <time>2013-06-20T09:19:45Z</time>
      </trkpt>
      <trkpt lat="45.74394" lon="5.89674">
        <ele>566.66</ele>
        <time>2013-06-20T09:19:56Z</time>
      </trkpt>
      <trkpt lat="45.7441" lon="5.89662">
        <ele>568.55</ele>
        <time>2013-06-20T09:20:06Z</time>
      </trkpt>
      <trkpt lat="45.74426" lon="5.8965">
        <ele>569.46</ele>
        <time>2013-06-20T09:20:18Z</time>
      </trkpt>
      <trkpt lat="45.74444" lon="5.89643">
        <ele>570.71</ele>
        <time>2013-06-20T09:20:31Z</time>
      </trkpt>
      <trkpt lat="45.74461" lon="5.89631">
        <ele>572.55</ele>
        <time>2013-06-20T09:20:44Z</time>
      </trkpt>
      <trkpt lat="45.74471" lon="5.89609">
        <ele>575.03</ele>
        <time>2013-06-20T09:21:00Z</time>
      </trkpt>
      <trkpt lat="45.74487" lon="5.89597">
        <ele>577.79</ele>
        <time>2013-06-20T09:21:19Z</time>
      </trkpt>
      <trkpt lat="45.745" lon="5.89578">
        <ele>582.49</ele>
        <time>2013-06-20T09:21:33Z</time>
      </trkpt>
      <trkpt lat="45.74509" lon="5.89555">
        <ele>584.04</ele>
        <time>2013-06-20T09:21:41Z</time>
      </trkpt>
      <trkpt lat="45.74526" lon="5.89563">
        <ele>589.05</ele>
        <time>2013-06-20T09:22:01Z</time>
      </trkpt>
      <trkpt lat="45.74521" lon="5.89588">
        <ele>593.85</ele>
        <time>2013-06-20T09:22:14Z</time>
      </trkpt>
      <trkpt lat="45.74516" lon="5.89613">
        <ele>596.63</ele>
        <time>2013-06-20T09:22:29Z</time>
      </trkpt>
      <trkpt lat="45.7451" lon="5.89638">
        <ele>598.03</ele>
        <time>2013-06-20T09:22:40Z</time>
      </trkpt>
      <trkpt lat="45.74528" lon="5.89629">
        <ele>605.61</ele>
        <time>2013-06-20T09:23:03Z</time>
      </trkpt>
      <trkpt lat="45.74545" lon="5.89616">
        <ele>609.14</ele>
        <time>2013-06-20T09:23:14Z</time>
      </trkpt>
      <trkpt lat="45.7456" lon="5.89602">
        <ele>610.53</ele>
        <time>2013-06-20T09:23:28Z</time>
      </trkpt>
      <trkpt lat="45.74573" lon="5.89583">
        <ele>613.1</ele>
        <time>2013-06-20T09:23:42Z</time>
      </trkpt>
      <trkpt lat="45.74585" lon="5.89563">
        <ele>614.95</ele>
        <time>2013-06-20T09:23:56Z</time>
      </trkpt>
      <trkpt lat="45.746" lon="5.89547">
        <ele>618.79</ele>
        <time>2013-06-20T09:24:10Z</time>
      </trkpt>
      <trkpt lat="45.74614" lon="5.89528">
        <ele>620.69</ele>
        <time>2013-06-20T09:24:19Z</time>
      </trkpt>
      <trkpt lat="45.74624" lon="5.89507">
        <ele>623</ele>
        <time>2013-06-20T09:24:31Z</time>
      </trkpt>
      <trkpt lat="45.74639" lon="5.89486">
        <ele>626.74</ele>
        <time>2013-06-20T09:24:43Z</time>
      </trkpt>
      <trkpt lat="45.74655" lon="5.89477">
        <ele>630.91</ele>
        <time>2013-06-20T09:24:56Z</time>
      </trkpt>
      <trkpt lat="45.74674" lon="5.89474">
        <ele>631.75</ele>
        <time>2013-06-20T09:25:08Z</time>
      </trkpt>
      <trkpt lat="45.74692" lon="5.89475">
        <ele>635.58</ele>
        <time>2013-06-20T09:25:22Z</time>
      </trkpt>
      <trkpt lat="45.7471" lon="5.89472">
        <ele>638.61</ele>
        <time>2013-06-20T09:25:36Z</time>
      </trkpt>
      <trkpt lat="45.74723" lon="5.89454">
        <ele>637.87</ele>
        <time>2013-06-20T09:26:02Z</time>
      </trkpt>
      <trkpt lat="45.7474" lon="5.89463">
        <ele>647.94</ele>
        <time>2013-06-20T09:32:54Z</time>
      </trkpt>
      <trkpt lat="45.74757" lon="5.89448">
        <ele>647.97</ele>
        <time>2013-06-20T09:33:02Z</time>
      </trkpt>
      <trkpt lat="45.74775" lon="5.89437">
        <ele>647.81</ele>
        <time>2013-06-20T09:33:08Z</time>
      </trkpt>
      <trkpt lat="45.74795" lon="5.8942">
        <ele>644.4</ele>
        <time>2013-06-20T09:33:13Z</time>
      </trkpt>
      <trkpt lat="45.7481" lon="5.89406">
        <ele>640.7</ele>
        <time>2013-06-20T09:33:18Z</time>
      </trkpt>
      <trkpt lat="45.74827" lon="5.89393">
        <ele>640.57</ele>
        <time>2013-06-20T09:33:27Z</time>
      </trkpt>
      <trkpt lat="45.74846" lon="5.89392">
        <ele>641.22</ele>
        <time>2013-06-20T09:34:10Z</time>
      </trkpt>
      <trkpt lat="45.74832" lon="5.89374">
        <ele>638.74</ele>
        <time>2013-06-20T09:36:10Z</time>
      </trkpt>
      <trkpt lat="45.74832" lon="5.89347">
        <ele>639.47</ele>
        <time>2013-06-20T09:36:18Z</time>
      </trkpt>
      <trkpt lat="45.74846" lon="5.89321">
        <ele>637.4</ele>
        <time>2013-06-20T09:36:25Z</time>
      </trkpt>
      <trkpt lat="45.74861" lon="5.89305">
        <ele>632.19</ele>
        <time>2013-06-20T09:36:31Z</time>
      </trkpt>
      <trkpt lat="45.7488" lon="5.89297">
        <ele>629.65</ele>
        <time>2013-06-20T09:36:38Z</time>
      </trkpt>
      <trkpt lat="45.74899" lon="5.89291">
        <ele>628.54</ele>
        <time>2013-06-20T09:36:44Z</time>
      </trkpt>
      <trkpt lat="45.74915" lon="5.89279">
        <ele>627.45</ele>
        <time>2013-06-20T09:36:49Z</time>
      </trkpt>
      <trkpt lat="45.74932" lon="5.8926">
        <ele>625.75</ele>
        <time>2013-06-20T09:36:54Z</time>
      </trkpt>
      <trkpt lat="45.74949" lon="5.89247">
        <ele>624.45</ele>
        <time>2013-06-20T09:36:58Z</time>
      </trkpt>
      <trkpt lat="45.74972" lon="5.89234">
        <ele>622.96</ele>
        <time>2013-06-20T09:37:02Z</time>
      </trkpt>
      <trkpt lat="45.74992" lon="5.89223">
        <ele>621.49</ele>
        <time>2013-06-20T09:37:05Z</time>
      </trkpt>
      <trkpt lat="45.75012" lon="5.89212">
        <ele>619.74</ele>
        <time>2013-06-20T09:37:08Z</time>
      </trkpt>
      <trkpt lat="45.75031" lon="5.89196">
        <ele>618.1</ele>
        <time>2013-06-20T09:37:12Z</time>
      </trkpt>
      <trkpt lat="45.75046" lon="5.89175">
        <ele>614.99</ele>
        <time>2013-06-20T09:37:16Z</time>
      </trkpt>
      <trkpt lat="45.75067" lon="5.89154">
        <ele>612.19</ele>
        <time>2013-06-20T09:37:20Z</time>
      </trkpt>
      <trkpt lat="45.75078" lon="5.89133">
        <ele>609.36</ele>
        <time>2013-06-20T09:37:23Z</time>
      </trkpt>
      <trkpt lat="45.75091" lon="5.89114">
        <ele>605.59</ele>
        <time>2013-06-20T09:37:26Z</time>
      </trkpt>
      <trkpt lat="45.75103" lon="5.89091">
        <ele>601.34</ele>
        <time>2013-06-20T09:37:29Z</time>
      </trkpt>
      <trkpt lat="45.75113" lon="5.89068">
        <ele>595.6</ele>
        <time>2013-06-20T09:37:33Z</time>
      </trkpt>
      <trkpt lat="45.75117" lon="5.8904">
        <ele>582.34</ele>
        <time>2013-06-20T09:40:35Z</time>
      </trkpt>
      <trkpt lat="45.75128" lon="5.89018">
        <ele>581.76</ele>
        <time>2013-06-20T09:40:40Z</time>
      </trkpt>
      <trkpt lat="45.75135" lon="5.88993">
        <ele>581</ele>
        <time>2013-06-20T09:40:47Z</time>
      </trkpt>
      <trkpt lat="45.75118" lon="5.89005">
        <ele>580.31</ele>
        <time>2013-06-20T09:40:51Z</time>
      </trkpt>
      <trkpt lat="45.751" lon="5.89022">
        <ele>579.55</ele>
        <time>2013-06-20T09:40:54Z</time>
      </trkpt>
      <trkpt lat="45.75084" lon="5.8904">
        <ele>578.09</ele>
        <time>2013-06-20T09:40:57Z</time>
      </trkpt>
      <trkpt lat="45.75068" lon="5.89059">
        <ele>576.17</ele>
        <time>2013-06-20T09:41:00Z</time>
      </trkpt>
      <trkpt lat="45.75049" lon="5.89073">
        <ele>574.21</ele>
        <time>2013-06-20T09:41:03Z</time>
      </trkpt>
      <trkpt lat="45.75027" lon="5.89084">
        <ele>571.99</ele>
        <time>2013-06-20T09:41:06Z</time>
      </trkpt>
      <trkpt lat="45.75003" lon="5.89094">
        <ele>569.45</ele>
        <time>2013-06-20T09:41:09Z</time>
      </trkpt>
      <trkpt lat="45.7498" lon="5.89103">
        <ele>567.37</ele>
        <time>2013-06-20T09:41:12Z</time>
      </trkpt>
      <trkpt lat="45.74958" lon="5.89113">
        <ele>566.08</ele>
        <time>2013-06-20T09:41:15Z</time>
      </trkpt>
      <trkpt lat="45.74936" lon="5.89126">
        <ele>565.27</ele>
        <time>2013-06-20T09:41:18Z</time>
      </trkpt>
      <trkpt lat="45.74911" lon="5.89136">
        <ele>564.14</ele>
        <time>2013-06-20T09:41:21Z</time>
      </trkpt>
      <trkpt lat="45.74893" lon="5.89138">
        <ele>563.06</ele>
        <time>2013-06-20T09:41:23Z</time>
      </trkpt>
      <trkpt lat="45.74875" lon="5.89132">
        <ele>561.84</ele>
        <time>2013-06-20T09:41:25Z</time>
      </trkpt>
      <trkpt lat="45.74856" lon="5.89122">
        <ele>558.97</ele>
        <time>2013-06-20T09:41:28Z</time>
      </trkpt>
      <trkpt lat="45.74839" lon="5.89106">
        <ele>553</ele>
        <time>2013-06-20T09:41:33Z</time>
      </trkpt>
      <trkpt lat="45.74865" lon="5.89098">
        <ele>547.66</ele>
        <time>2013-06-20T09:41:38Z</time>
      </trkpt>
      <trkpt lat="45.74888" lon="5.89088">
        <ele>545.83</ele>
        <time>2013-06-20T09:41:41Z</time>
      </trkpt>
      <trkpt lat="45.7491" lon="5.89075">
        <ele>544.43</ele>
        <time>2013-06-20T09:41:44Z</time>
      </trkpt>
      <trkpt lat="45.74929" lon="5.89061">
        <ele>543.1</ele>
        <time>2013-06-20T09:41:47Z</time>
      </trkpt>
      <trkpt lat="45.74943" lon="5.89042">
        <ele>541.37</ele>
        <time>2013-06-20T09:41:50Z</time>
      </trkpt>
      <trkpt lat="45.74952" lon="5.89018">
        <ele>539.45</ele>
        <time>2013-06-20T09:41:53Z</time>
      </trkpt>
      <trkpt lat="45.74961" lon="5.8899">
        <ele>538.12</ele>
        <time>2013-06-20T09:41:56Z</time>
      </trkpt>
      <trkpt lat="45.74961" lon="5.88964">
        <ele>534.49</ele>
        <time>2013-06-20T09:41:59Z</time>
      </trkpt>
      <trkpt lat="45.74968" lon="5.88938">
        <ele>530.93</ele>
        <time>2013-06-20T09:42:03Z</time>
      </trkpt>
      <trkpt lat="45.74986" lon="5.88934">
        <ele>515.58</ele>
        <time>2013-06-20T09:43:08Z</time>
      </trkpt>
      <trkpt lat="45.75005" lon="5.88935">
        <ele>516.72</ele>
        <time>2013-06-20T09:43:21Z</time>
      </trkpt>
      <trkpt lat="45.75023" lon="5.88936">
        <ele>517.52</ele>
        <time>2013-06-20T09:43:36Z</time>
      </trkpt>
      <trkpt lat="45.75042" lon="5.88931">
        <ele>518.24</ele>
        <time>2013-06-20T09:43:50Z</time>
      </trkpt>
      <trkpt lat="45.75059" lon="5.88924">
        <ele>518.75</ele>
        <time>2013-06-20T09:44:03Z</time>
      </trkpt>
      <trkpt lat="45.75078" lon="5.88922">
        <ele>520.85</ele>
        <time>2013-06-20T09:44:16Z</time>
      </trkpt>
      <trkpt lat="45.75096" lon="5.88916">
        <ele>526.71</ele>
        <time>2013-06-20T09:44:36Z</time>
      </trkpt>
      <trkpt lat="45.75113" lon="5.88902">
        <ele>530.53</ele>
        <time>2013-06-20T09:44:53Z</time>
      </trkpt>
      <trkpt lat="45.7513" lon="5.88893">
        <ele>530.56</ele>
        <time>2013-06-20T09:45:05Z</time>
      </trkpt>
      <trkpt lat="45.75147" lon="5.88886">
        <ele>531.12</ele>
        <time>2013-06-20T09:45:16Z</time>
      </trkpt>
      <trkpt lat="45.75167" lon="5.88878">
        <ele>531.71</ele>
        <time>2013-06-20T09:45:25Z</time>
      </trkpt>
      <trkpt lat="45.75185" lon="5.88868">
        <ele>532.57</ele>
        <time>2013-06-20T09:45:34Z</time>
      </trkpt>
      <trkpt lat="45.75204" lon="5.88862">
        <ele>534.17</ele>
        <time>2013-06-20T09:45:43Z</time>
      </trkpt>
      <trkpt lat="45.75221" lon="5.88853">
        <ele>536.5</ele>
        <time>2013-06-20T09:45:54Z</time>
      </trkpt>
      <trkpt lat="45.7524" lon="5.88854">
        <ele>540.29</ele>
        <time>2013-06-20T09:46:06Z</time>
      </trkpt>
      <trkpt lat="45.75258" lon="5.88847">
        <ele>542.11</ele>
        <time>2013-06-20T09:46:17Z</time>
      </trkpt>
      <trkpt lat="45.75274" lon="5.88835">
        <ele>544.03</ele>
        <time>2013-06-20T09:46:28Z</time>
      </trkpt>
      <trkpt lat="45.75293" lon="5.88826">
        <ele>545.95</ele>
        <time>2013-06-20T09:46:38Z</time>
      </trkpt>
      <trkpt lat="45.75309" lon="5.88811">
        <ele>547.67</ele>
        <time>2013-06-20T09:46:50Z</time>
      </trkpt>
      <trkpt lat="45.75324" lon="5.88794">
        <ele>548.05</ele>
        <time>2013-06-20T09:47:00Z</time>
      </trkpt>
      <trkpt lat="45.75331" lon="5.88769">
        <ele>547.6</ele>
        <time>2013-06-20T09:47:11Z</time>
      </trkpt>
      <trkpt lat="45.75349" lon="5.88761">
        <ele>552.66</ele>
        <time>2013-06-20T09:47:21Z</time>
      </trkpt>
      <trkpt lat="45.75367" lon="5.88753">
        <ele>554.65</ele>
        <time>2013-06-20T09:47:33Z</time>
      </trkpt>
      <trkpt lat="45.75381" lon="5.88736">
        <ele>554.81</ele>
        <time>2013-06-20T09:47:45Z</time>
      </trkpt>
      <trkpt lat="45.75394" lon="5.88718">
        <ele>555.7</ele>
        <time>2013-06-20T09:47:58Z</time>
      </trkpt>
      <trkpt lat="45.7541" lon="5.88703">
        <ele>556.76</ele>
        <time>2013-06-20T09:48:11Z</time>
      </trkpt>
      <trkpt lat="45.7543" lon="5.88695">
        <ele>561.08</ele>
        <time>2013-06-20T09:48:25Z</time>
      </trkpt>
      <trkpt lat="45.75448" lon="5.88689">
        <ele>561.14</ele>
        <time>2013-06-20T09:48:33Z</time>
      </trkpt>
      <trkpt lat="45.75465" lon="5.88676">
        <ele>560.67</ele>
        <time>2013-06-20T09:48:42Z</time>
      </trkpt>
      <trkpt lat="45.7548" lon="5.88662">
        <ele>563.95</ele>
        <time>2013-06-20T09:48:53Z</time>
      </trkpt>
      <trkpt lat="45.75496" lon="5.88647">
        <ele>566.98</ele>
        <time>2013-06-20T09:49:03Z</time>
      </trkpt>
      <trkpt lat="45.75512" lon="5.88632">
        <ele>571.22</ele>
        <time>2013-06-20T09:49:16Z</time>
      </trkpt>
      <trkpt lat="45.75529" lon="5.88622">
        <ele>573.15</ele>
        <time>2013-06-20T09:49:27Z</time>
      </trkpt>
      <trkpt lat="45.75547" lon="5.88609">
        <ele>574.76</ele>
        <time>2013-06-20T09:49:38Z</time>
      </trkpt>
      <trkpt lat="45.75562" lon="5.88595">
        <ele>576.84</ele>
        <time>2013-06-20T09:49:49Z</time>
      </trkpt>
      <trkpt lat="45.7558" lon="5.88583">
        <ele>580.68</ele>
        <time>2013-06-20T09:50:03Z</time>
      </trkpt>
      <trkpt lat="45.75598" lon="5.88572">
        <ele>582.38</ele>
        <time>2013-06-20T09:50:13Z</time>
      </trkpt>
      <trkpt lat="45.75617" lon="5.88574">
        <ele>584.6</ele>
        <time>2013-06-20T09:50:22Z</time>
      </trkpt>
      <trkpt lat="45.75611" lon="5.88599">
        <ele>589.16</ele>
        <time>2013-06-20T09:50:33Z</time>
      </trkpt>
      <trkpt lat="45.75604" lon="5.88623">
        <ele>592.07</ele>
        <time>2013-06-20T09:50:43Z</time>
      </trkpt>
      <trkpt lat="45.75623" lon="5.88616">
        <ele>595.51</ele>
        <time>2013-06-20T09:50:58Z</time>
      </trkpt>
      <trkpt lat="45.75638" lon="5.88602">
        <ele>600.37</ele>
        <time>2013-06-20T09:51:11Z</time>
      </trkpt>
      <trkpt lat="45.75656" lon="5.88595">
        <ele>604.77</ele>
        <time>2013-06-20T09:51:25Z</time>
      </trkpt>
      <trkpt lat="45.75674" lon="5.88586">
        <ele>605.79</ele>
        <time>2013-06-20T09:51:41Z</time>
      </trkpt>
      <trkpt lat="45.75693" lon="5.88583">
        <ele>604.92</ele>
        <time>2013-06-20T09:51:53Z</time>
      </trkpt>
      <trkpt lat="45.75713" lon="5.88583">
        <ele>604.84</ele>
        <time>2013-06-20T09:52:04Z</time>
      </trkpt>
      <trkpt lat="45.75732" lon="5.88583">
        <ele>605.25</ele>
        <time>2013-06-20T09:52:16Z</time>
      </trkpt>
      <trkpt lat="45.7575" lon="5.88576">
        <ele>608.52</ele>
        <time>2013-06-20T09:52:26Z</time>
      </trkpt>
      <trkpt lat="45.75769" lon="5.88575">
        <ele>616.84</ele>
        <time>2013-06-20T09:52:36Z</time>
      </trkpt>
      <trkpt lat="45.75788" lon="5.88574">
        <ele>622.98</ele>
        <time>2013-06-20T09:52:48Z</time>
      </trkpt>
      <trkpt lat="45.75804" lon="5.88561">
        <ele>624.18</ele>
        <time>2013-06-20T09:52:59Z</time>
      </trkpt>
      <trkpt lat="45.75815" lon="5.88541">
        <ele>624.59</ele>
        <time>2013-06-20T09:53:12Z</time>
      </trkpt>
      <trkpt lat="45.75831" lon="5.88528">
        <ele>628.5</ele>
        <time>2013-06-20T09:53:24Z</time>
      </trkpt>
      <trkpt lat="45.7585" lon="5.88524">
        <ele>629.76</ele>
        <time>2013-06-20T09:53:37Z</time>
      </trkpt>
      <trkpt lat="45.75868" lon="5.88523">
        <ele>633.43</ele>
        <time>2013-06-20T09:53:49Z</time>
      </trkpt>
      <trkpt lat="45.75885" lon="5.88513">
        <ele>635.95</ele>
        <time>2013-06-20T09:54:00Z</time>
      </trkpt>
      <trkpt lat="45.75901" lon="5.88498">
        <ele>637.07</ele>
        <time>2013-06-20T09:54:13Z</time>
      </trkpt>
      <trkpt lat="45.75918" lon="5.88486">
        <ele>638.16</ele>
        <time>2013-06-20T09:54:28Z</time>
      </trkpt>
      <trkpt lat="45.75936" lon="5.88478">
        <ele>639.07</ele>
        <time>2013-06-20T09:54:37Z</time>
      </trkpt>
      <trkpt lat="45.75955" lon="5.88475">
        <ele>641.36</ele>
        <time>2013-06-20T09:54:50Z</time>
      </trkpt>
      <trkpt lat="45.75973" lon="5.8847">
        <ele>643.1</ele>
        <time>2013-06-20T09:55:05Z</time>
      </trkpt>
      <trkpt lat="45.75991" lon="5.88463">
        <ele>645.6</ele>
        <time>2013-06-20T09:55:19Z</time>
      </trkpt>
      <trkpt lat="45.7601" lon="5.88454">
        <ele>648.72</ele>
        <time>2013-06-20T09:55:34Z</time>
      </trkpt>
      <trkpt lat="45.76028" lon="5.88451">
        <ele>650.31</ele>
        <time>2013-06-20T09:55:44Z</time>
      </trkpt>
      <trkpt lat="45.76047" lon="5.88446">
        <ele>652.41</ele>
        <time>2013-06-20T09:55:56Z</time>
      </trkpt>
      <trkpt lat="45.76064" lon="5.88439">
        <ele>653.51</ele>
        <time>2013-06-20T09:56:07Z</time>
      </trkpt>
      <trkpt lat="45.76082" lon="5.8843">
        <ele>654.05</ele>
        <time>2013-06-20T09:56:16Z</time>
      </trkpt>
      <trkpt lat="45.76096" lon="5.88411">
        <ele>655.59</ele>
        <time>2013-06-20T09:56:31Z</time>
      </trkpt>
      <trkpt lat="45.76109" lon="5.88394">
        <ele>656.34</ele>
        <time>2013-06-20T09:56:41Z</time>
      </trkpt>
      <trkpt lat="45.76126" lon="5.88379">
        <ele>656.43</ele>
        <time>2013-06-20T09:56:48Z</time>
      </trkpt>
      <trkpt lat="45.76145" lon="5.88378">
        <ele>657.43</ele>
        <time>2013-06-20T09:56:54Z</time>
      </trkpt>
      <trkpt lat="45.76163" lon="5.88383">
        <ele>665.1</ele>
        <time>2013-06-20T09:59:42Z</time>
      </trkpt>
      <trkpt lat="45.76188" lon="5.88392">
        <ele>665.92</ele>
        <time>2013-06-20T09:59:47Z</time>
      </trkpt>
      <trkpt lat="45.76202" lon="5.88373">
        <ele>666.1</ele>
        <time>2013-06-20T09:59:54Z</time>
      </trkpt>
      <trkpt lat="45.76217" lon="5.88358">
        <ele>666.14</ele>
        <time>2013-06-20T09:59:59Z</time>
      </trkpt>
      <trkpt lat="45.76236" lon="5.88345">
        <ele>666.61</ele>
        <time>2013-06-20T10:00:04Z</time>
      </trkpt>
      <trkpt lat="45.76255" lon="5.88339">
        <ele>666.88</ele>
        <time>2013-06-20T10:00:09Z</time>
      </trkpt>
      <trkpt lat="45.76273" lon="5.88323">
        <ele>667.14</ele>
        <time>2013-06-20T10:00:15Z</time>
      </trkpt>
      <trkpt lat="45.76286" lon="5.88301">
        <ele>667.14</ele>
        <time>2013-06-20T10:00:19Z</time>
      </trkpt>
      <trkpt lat="45.76302" lon="5.88279">
        <ele>666.76</ele>
        <time>2013-06-20T10:00:23Z</time>
      </trkpt>
      <trkpt lat="45.76318" lon="5.88263">
        <ele>666.58</ele>
        <time>2013-06-20T10:00:27Z</time>
      </trkpt>
      <trkpt lat="45.76335" lon="5.8825">
        <ele>665.96</ele>
        <time>2013-06-20T10:00:31Z</time>
      </trkpt>
      <trkpt lat="45.76353" lon="5.88252">
        <ele>665.83</ele>
        <time>2013-06-20T10:00:34Z</time>
      </trkpt>
      <trkpt lat="45.76372" lon="5.88251">
        <ele>666.15</ele>
        <time>2013-06-20T10:00:38Z</time>
      </trkpt>
      <trkpt lat="45.76391" lon="5.88245">
        <ele>665.71</ele>
        <time>2013-06-20T10:00:43Z</time>
      </trkpt>
      <trkpt lat="45.76408" lon="5.88235">
        <ele>665.69</ele>
        <time>2013-06-20T10:00:50Z</time>
      </trkpt>
      <trkpt lat="45.76421" lon="5.8821">
        <ele>666.41</ele>
        <time>2013-06-20T10:00:54Z</time>
      </trkpt>
      <trkpt lat="45.76434" lon="5.8819">
        <ele>665.74</ele>
        <time>2013-06-20T10:00:57Z</time>
      </trkpt>
      <trkpt lat="45.7645" lon="5.88174">
        <ele>665.24</ele>
        <time>2013-06-20T10:01:02Z</time>
      </trkpt>
      <trkpt lat="45.76468" lon="5.88166">
        <ele>665.95</ele>
        <time>2013-06-20T10:01:14Z</time>
      </trkpt>
      <trkpt lat="45.76481" lon="5.88145">
        <ele>666.58</ele>
        <time>2013-06-20T10:01:25Z</time>
      </trkpt>
      <trkpt lat="45.76496" lon="5.88129">
        <ele>666.86</ele>
        <time>2013-06-20T10:01:36Z</time>
      </trkpt>
      <trkpt lat="45.76506" lon="5.88106">
        <ele>669.93</ele>
        <time>2013-06-20T10:01:49Z</time>
      </trkpt>
      <trkpt lat="45.76517" lon="5.88085">
        <ele>676.29</ele>
        <time>2013-06-20T10:02:03Z</time>
      </trkpt>
      <trkpt lat="45.76533" lon="5.88072">
        <ele>678.17</ele>
        <time>2013-06-20T10:02:15Z</time>
      </trkpt>
      <trkpt lat="45.7655" lon="5.88063">
        <ele>680.25</ele>
        <time>2013-06-20T10:02:26Z</time>
      </trkpt>
      <trkpt lat="45.7657" lon="5.88057">
        <ele>681.88</ele>
        <time>2013-06-20T10:02:33Z</time>
      </trkpt>
      <trkpt lat="45.76575" lon="5.88082">
        <ele>687.45</ele>
        <time>2013-06-20T10:03:04Z</time>
      </trkpt>
      <trkpt lat="45.76569" lon="5.88106">
        <ele>689.35</ele>
        <time>2013-06-20T10:03:17Z</time>
      </trkpt>
      <trkpt lat="45.76586" lon="5.88129">
        <ele>695.84</ele>
        <time>2013-06-20T10:04:20Z</time>
      </trkpt>
      <trkpt lat="45.76597" lon="5.88149">
        <ele>701.06</ele>
        <time>2013-06-20T10:04:58Z</time>
      </trkpt>
      <trkpt lat="45.76616" lon="5.88145">
        <ele>710.48</ele>
        <time>2013-06-20T10:05:40Z</time>
      </trkpt>
      <trkpt lat="45.76634" lon="5.88146">
        <ele>717.11</ele>
        <time>2013-06-20T10:06:10Z</time>
      </trkpt>
      <trkpt lat="45.76652" lon="5.8815">
        <ele>723.12</ele>
        <time>2013-06-20T10:06:38Z</time>
      </trkpt>
      <trkpt lat="45.7667" lon="5.88164">
        <ele>730.43</ele>
        <time>2013-06-20T10:08:35Z</time>
      </trkpt>
      <trkpt lat="45.76661" lon="5.88186">
        <ele>737</ele>
        <time>2013-06-20T10:09:03Z</time>
      </trkpt>
      <trkpt lat="45.7665" lon="5.88208">
        <ele>743.07</ele>
        <time>2013-06-20T10:09:32Z</time>
      </trkpt>
      <trkpt lat="45.7666" lon="5.8823">
        <ele>747.97</ele>
        <time>2013-06-20T10:10:16Z</time>
      </trkpt>
      <trkpt lat="45.76667" lon="5.88254">
        <ele>754.25</ele>
        <time>2013-06-20T10:11:04Z</time>
      </trkpt>
      <trkpt lat="45.76663" lon="5.88281">
        <ele>756.31</ele>
        <time>2013-06-20T10:11:18Z</time>
      </trkpt>
      <trkpt lat="45.76653" lon="5.88303">
        <ele>759.98</ele>
        <time>2013-06-20T10:11:31Z</time>
      </trkpt>
      <trkpt lat="45.76648" lon="5.88328">
        <ele>765.69</ele>
        <time>2013-06-20T10:11:44Z</time>
      </trkpt>
      <trkpt lat="45.76658" lon="5.8835">
        <ele>769.56</ele>
        <time>2013-06-20T10:12:02Z</time>
      </trkpt>
      <trkpt lat="45.76677" lon="5.88356">
        <ele>775.23</ele>
        <time>2013-06-20T10:12:16Z</time>
      </trkpt>
      <trkpt lat="45.76695" lon="5.88365">
        <ele>778.97</ele>
        <time>2013-06-20T10:12:30Z</time>
      </trkpt>
      <trkpt lat="45.76713" lon="5.88369">
        <ele>779.93</ele>
        <time>2013-06-20T10:12:46Z</time>
      </trkpt>
      <trkpt lat="45.76733" lon="5.88368">
        <ele>782.14</ele>
        <time>2013-06-20T10:12:59Z</time>
      </trkpt>
      <trkpt lat="45.76751" lon="5.88368">
        <ele>785.95</ele>
        <time>2013-06-20T10:14:24Z</time>
      </trkpt>
      <trkpt lat="45.76743" lon="5.88393">
        <ele>789.62</ele>
        <time>2013-06-20T10:15:00Z</time>
      </trkpt>
      <trkpt lat="45.7673" lon="5.88413">
        <ele>789</ele>
        <time>2013-06-20T10:15:12Z</time>
      </trkpt>
      <trkpt lat="45.76718" lon="5.88434">
        <ele>788.35</ele>
        <time>2013-06-20T10:15:21Z</time>
      </trkpt>
      <trkpt lat="45.76713" lon="5.88459">
        <ele>787.76</ele>
        <time>2013-06-20T10:15:29Z</time>
      </trkpt>
      <trkpt lat="45.7672" lon="5.88485">
        <ele>787.68</ele>
        <time>2013-06-20T10:15:35Z</time>
      </trkpt>
      <trkpt lat="45.76716" lon="5.88514">
        <ele>786.25</ele>
        <time>2013-06-20T10:15:41Z</time>
      </trkpt>
      <trkpt lat="45.76703" lon="5.88534">
        <ele>785.23</ele>
        <time>2013-06-20T10:15:47Z</time>
      </trkpt>
      <trkpt lat="45.76684" lon="5.88535">
        <ele>786.03</ele>
        <time>2013-06-20T10:15:57Z</time>
      </trkpt>
      <trkpt lat="45.76665" lon="5.88533">
        <ele>788.71</ele>
        <time>2013-06-20T10:16:12Z</time>
      </trkpt>
      <trkpt lat="45.76647" lon="5.88537">
        <ele>792.58</ele>
        <time>2013-06-20T10:16:26Z</time>
      </trkpt>
      <trkpt lat="45.76629" lon="5.88545">
        <ele>795.28</ele>
        <time>2013-06-20T10:16:42Z</time>
      </trkpt>
      <trkpt lat="45.7661" lon="5.88544">
        <ele>800.72</ele>
        <time>2013-06-20T10:16:58Z</time>
      </trkpt>
      <trkpt lat="45.76592" lon="5.88546">
        <ele>802.83</ele>
        <time>2013-06-20T10:17:10Z</time>
      </trkpt>
      <trkpt lat="45.76574" lon="5.88552">
        <ele>806.26</ele>
        <time>2013-06-20T10:17:22Z</time>
      </trkpt>
      <trkpt lat="45.76555" lon="5.88554">
        <ele>810.51</ele>
        <time>2013-06-20T10:17:37Z</time>
      </trkpt>
      <trkpt lat="45.76537" lon="5.88559">
        <ele>815.27</ele>
        <time>2013-06-20T10:17:53Z</time>
      </trkpt>
      <trkpt lat="45.7652" lon="5.88568">
        <ele>817.26</ele>
        <time>2013-06-20T10:18:04Z</time>
      </trkpt>
      <trkpt lat="45.76501" lon="5.88571">
        <ele>821.64</ele>
        <time>2013-06-20T10:18:20Z</time>
      </trkpt>
      <trkpt lat="45.76483" lon="5.88576">
        <ele>824.11</ele>
        <time>2013-06-20T10:18:35Z</time>
      </trkpt>
      <trkpt lat="45.76463" lon="5.88586">
        <ele>829.34</ele>
        <time>2013-06-20T10:19:46Z</time>
      </trkpt>
      <trkpt lat="45.76444" lon="5.88586">
        <ele>826.91</ele>
        <time>2013-06-20T10:20:00Z</time>
      </trkpt>
      <trkpt lat="45.76425" lon="5.88594">
        <ele>826.94</ele>
        <time>2013-06-20T10:20:12Z</time>
      </trkpt>
      <trkpt lat="45.76409" lon="5.88607">
        <ele>828.86</ele>
        <time>2013-06-20T10:20:23Z</time>
      </trkpt>
      <trkpt lat="45.76389" lon="5.88609">
        <ele>830.1</ele>
        <time>2013-06-20T10:20:33Z</time>
      </trkpt>
      <trkpt lat="45.76371" lon="5.8862">
        <ele>830.24</ele>
        <time>2013-06-20T10:20:40Z</time>
      </trkpt>
      <trkpt lat="45.76354" lon="5.88637">
        <ele>829.46</ele>
        <time>2013-06-20T10:20:46Z</time>
      </trkpt>
      <trkpt lat="45.76336" lon="5.88656">
        <ele>828.79</ele>
        <time>2013-06-20T10:20:51Z</time>
      </trkpt>
      <trkpt lat="45.76315" lon="5.88662">
        <ele>828.6</ele>
        <time>2013-06-20T10:20:55Z</time>
      </trkpt>
      <trkpt lat="45.763" lon="5.88679">
        <ele>828.42</ele>
        <time>2013-06-20T10:21:00Z</time>
      </trkpt>
      <trkpt lat="45.76301" lon="5.88707">
        <ele>827.04</ele>
        <time>2013-06-20T10:21:09Z</time>
      </trkpt>
      <trkpt lat="45.76297" lon="5.88733">
        <ele>825.74</ele>
        <time>2013-06-20T10:21:17Z</time>
      </trkpt>
      <trkpt lat="45.7628" lon="5.88754">
        <ele>824.8</ele>
        <time>2013-06-20T10:21:23Z</time>
      </trkpt>
      <trkpt lat="45.76266" lon="5.88775">
        <ele>824.06</ele>
        <time>2013-06-20T10:21:26Z</time>
      </trkpt>
      <trkpt lat="45.7625" lon="5.88799">
        <ele>823.33</ele>
        <time>2013-06-20T10:21:29Z</time>
      </trkpt>
      <trkpt lat="45.76232" lon="5.88821">
        <ele>823.02</ele>
        <time>2013-06-20T10:21:32Z</time>
      </trkpt>
      <trkpt lat="45.76213" lon="5.88828">
        <ele>824.88</ele>
        <time>2013-06-20T10:22:31Z</time>
      </trkpt>
      <trkpt lat="45.76194" lon="5.88828">
        <ele>818.63</ele>
        <time>2013-06-20T10:25:15Z</time>
      </trkpt>
      <trkpt lat="45.76175" lon="5.88822">
        <ele>817.76</ele>
        <time>2013-06-20T10:25:21Z</time>
      </trkpt>
      <trkpt lat="45.76155" lon="5.88819">
        <ele>817.5</ele>
        <time>2013-06-20T10:25:28Z</time>
      </trkpt>
      <trkpt lat="45.76136" lon="5.88828">
        <ele>816.16</ele>
        <time>2013-06-20T10:25:35Z</time>
      </trkpt>
      <trkpt lat="45.76117" lon="5.88843">
        <ele>814.72</ele>
        <time>2013-06-20T10:25:41Z</time>
      </trkpt>
      <trkpt lat="45.76102" lon="5.88859">
        <ele>814.18</ele>
        <time>2013-06-20T10:25:44Z</time>
      </trkpt>
      <trkpt lat="45.76085" lon="5.88869">
        <ele>813.75</ele>
        <time>2013-06-20T10:25:48Z</time>
      </trkpt>
      <trkpt lat="45.76064" lon="5.88868">
        <ele>812.26</ele>
        <time>2013-06-20T10:25:58Z</time>
      </trkpt>
      <trkpt lat="45.76047" lon="5.88881">
        <ele>811.77</ele>
        <time>2013-06-20T10:26:05Z</time>
      </trkpt>
      <trkpt lat="45.7603" lon="5.88892">
        <ele>811.48</ele>
        <time>2013-06-20T10:26:10Z</time>
      </trkpt>
      <trkpt lat="45.76012" lon="5.88901">
        <ele>811.47</ele>
        <time>2013-06-20T10:26:16Z</time>
      </trkpt>
      <trkpt lat="45.75993" lon="5.88912">
        <ele>811.64</ele>
        <time>2013-06-20T10:26:22Z</time>
      </trkpt>
      <trkpt lat="45.75975" lon="5.88927">
        <ele>811.36</ele>
        <time>2013-06-20T10:26:28Z</time>
      </trkpt>
      <trkpt lat="45.75958" lon="5.88943">
        <ele>810.97</ele>
        <time>2013-06-20T10:26:32Z</time>
      </trkpt>
      <trkpt lat="45.7594" lon="5.8896">
        <ele>810.31</ele>
        <time>2013-06-20T10:26:36Z</time>
      </trkpt>
      <trkpt lat="45.75923" lon="5.88977">
        <ele>809.78</ele>
        <time>2013-06-20T10:26:40Z</time>
      </trkpt>
      <trkpt lat="45.75906" lon="5.88994">
        <ele>809.41</ele>
        <time>2013-06-20T10:26:45Z</time>
      </trkpt>
      <trkpt lat="45.75887" lon="5.8901">
        <ele>809.01</ele>
        <time>2013-06-20T10:26:49Z</time>
      </trkpt>
      <trkpt lat="45.75868" lon="5.89015">
        <ele>808.98</ele>
        <time>2013-06-20T10:26:54Z</time>
      </trkpt>
      <trkpt lat="45.7585" lon="5.89012">
        <ele>810.02</ele>
        <time>2013-06-20T10:27:00Z</time>
      </trkpt>
      <trkpt lat="45.75833" lon="5.89006">
        <ele>811.81</ele>
        <time>2013-06-20T10:27:09Z</time>
      </trkpt>
      <trkpt lat="45.75814" lon="5.89005">
        <ele>812.73</ele>
        <time>2013-06-20T10:27:22Z</time>
      </trkpt>
      <trkpt lat="45.75796" lon="5.89009">
        <ele>812.06</ele>
        <time>2013-06-20T10:27:32Z</time>
      </trkpt>
      <trkpt lat="45.75778" lon="5.89022">
        <ele>811.27</ele>
        <time>2013-06-20T10:27:40Z</time>
      </trkpt>
      <trkpt lat="45.75759" lon="5.89036">
        <ele>809.78</ele>
        <time>2013-06-20T10:27:45Z</time>
      </trkpt>
      <trkpt lat="45.75741" lon="5.89042">
        <ele>807.02</ele>
        <time>2013-06-20T10:27:53Z</time>
      </trkpt>
      <trkpt lat="45.75722" lon="5.89044">
        <ele>800.87</ele>
        <time>2013-06-20T10:28:14Z</time>
      </trkpt>
      <trkpt lat="45.7571" lon="5.89025">
        <ele>795.8</ele>
        <time>2013-06-20T10:28:44Z</time>
      </trkpt>
      <trkpt lat="45.75693" lon="5.89033">
        <ele>792.73</ele>
        <time>2013-06-20T10:28:59Z</time>
      </trkpt>
      <trkpt lat="45.75674" lon="5.89045">
        <ele>789.92</ele>
        <time>2013-06-20T10:29:23Z</time>
      </trkpt>
      <trkpt lat="45.75661" lon="5.89066">
        <ele>788.96</ele>
        <time>2013-06-20T10:29:29Z</time>
      </trkpt>
      <trkpt lat="45.75647" lon="5.89087">
        <ele>788.02</ele>
        <time>2013-06-20T10:29:34Z</time>
      </trkpt>
      <trkpt lat="45.75634" lon="5.89107">
        <ele>787.08</ele>
        <time>2013-06-20T10:29:39Z</time>
      </trkpt>
      <trkpt lat="45.75619" lon="5.89128">
        <ele>785.84</ele>
        <time>2013-06-20T10:29:47Z</time>
      </trkpt>
      <trkpt lat="45.75611" lon="5.89153">
        <ele>784.66</ele>
        <time>2013-06-20T10:29:52Z</time>
      </trkpt>
      <trkpt lat="45.75601" lon="5.89176">
        <ele>783.92</ele>
        <time>2013-06-20T10:29:57Z</time>
      </trkpt>
      <trkpt lat="45.75602" lon="5.89204">
        <ele>783.93</ele>
        <time>2013-06-20T10:30:02Z</time>
      </trkpt>
      <trkpt lat="45.75596" lon="5.89232">
        <ele>782.65</ele>
        <time>2013-06-20T10:30:08Z</time>
      </trkpt>
      <trkpt lat="45.75588" lon="5.89259">
        <ele>781.98</ele>
        <time>2013-06-20T10:30:13Z</time>
      </trkpt>
      <trkpt lat="45.75574" lon="5.89285">
        <ele>781.47</ele>
        <time>2013-06-20T10:30:19Z</time>
      </trkpt>
      <trkpt lat="45.75562" lon="5.89311">
        <ele>780.64</ele>
        <time>2013-06-20T10:30:25Z</time>
      </trkpt>
      <trkpt lat="45.75557" lon="5.89338">
        <ele>779.64</ele>
        <time>2013-06-20T10:30:30Z</time>
      </trkpt>
      <trkpt lat="45.75561" lon="5.89364">
        <ele>778.72</ele>
        <time>2013-06-20T10:30:36Z</time>
      </trkpt>
      <trkpt lat="45.75569" lon="5.8939">
        <ele>778.15</ele>
        <time>2013-06-20T10:30:43Z</time>
      </trkpt>
      <trkpt lat="45.75584" lon="5.89413">
        <ele>776.69</ele>
        <time>2013-06-20T10:30:48Z</time>
      </trkpt>
      <trkpt lat="45.75577" lon="5.89437">
        <ele>774.4</ele>
        <time>2013-06-20T10:30:55Z</time>
      </trkpt>
      <trkpt lat="45.7556" lon="5.89448">
        <ele>772.38</ele>
        <time>2013-06-20T10:31:02Z</time>
      </trkpt>
      <trkpt lat="45.75548" lon="5.8947">
        <ele>771.64</ele>
        <time>2013-06-20T10:31:09Z</time>
      </trkpt>
      <trkpt lat="45.75532" lon="5.89488">
        <ele>772.47</ele>
        <time>2013-06-20T10:31:18Z</time>
      </trkpt>
      <trkpt lat="45.75518" lon="5.89502">
        <ele>773.54</ele>
        <time>2013-06-20T10:31:27Z</time>
      </trkpt>
      <trkpt lat="45.75508" lon="5.89525">
        <ele>774.72</ele>
        <time>2013-06-20T10:31:37Z</time>
      </trkpt>
      <trkpt lat="45.75496" lon="5.89545">
        <ele>775.39</ele>
        <time>2013-06-20T10:31:45Z</time>
      </trkpt>
      <trkpt lat="45.7548" lon="5.89559">
        <ele>776.09</ele>
        <time>2013-06-20T10:31:54Z</time>
      </trkpt>
      <trkpt lat="45.75464" lon="5.89575">
        <ele>777.09</ele>
        <time>2013-06-20T10:32:04Z</time>
      </trkpt>
      <trkpt lat="45.75449" lon="5.89591">
        <ele>778.43</ele>
        <time>2013-06-20T10:32:13Z</time>
      </trkpt>
      <trkpt lat="45.75436" lon="5.8961">
        <ele>782.99</ele>
        <time>2013-06-20T10:32:25Z</time>
      </trkpt>
      <trkpt lat="45.75424" lon="5.89631">
        <ele>789.56</ele>
        <time>2013-06-20T10:32:37Z</time>
      </trkpt>
      <trkpt lat="45.75411" lon="5.89651">
        <ele>795.36</ele>
        <time>2013-06-20T10:32:48Z</time>
      </trkpt>
      <trkpt lat="45.75398" lon="5.89671">
        <ele>799.05</ele>
        <time>2013-06-20T10:32:57Z</time>
      </trkpt>
      <trkpt lat="45.75387" lon="5.89694">
        <ele>801.27</ele>
        <time>2013-06-20T10:33:06Z</time>
      </trkpt>
      <trkpt lat="45.75379" lon="5.89721">
        <ele>802.66</ele>
        <time>2013-06-20T10:33:13Z</time>
      </trkpt>
      <trkpt lat="45.75373" lon="5.89747">
        <ele>802.12</ele>
        <time>2013-06-20T10:33:20Z</time>
      </trkpt>
      <trkpt lat="45.75369" lon="5.89773">
        <ele>802.69</ele>
        <time>2013-06-20T10:33:28Z</time>
      </trkpt>
      <trkpt lat="45.75361" lon="5.89798">
        <ele>801.71</ele>
        <time>2013-06-20T10:33:36Z</time>
      </trkpt>
      <trkpt lat="45.75352" lon="5.89825">
        <ele>799.64</ele>
        <time>2013-06-20T10:33:44Z</time>
      </trkpt>
      <trkpt lat="45.75342" lon="5.89854">
        <ele>800.22</ele>
        <time>2013-06-20T10:33:49Z</time>
      </trkpt>
      <trkpt lat="45.75331" lon="5.89882">
        <ele>801.61</ele>
        <time>2013-06-20T10:33:54Z</time>
      </trkpt>
      <trkpt lat="45.7532" lon="5.89906">
        <ele>802.05</ele>
        <time>2013-06-20T10:33:59Z</time>
      </trkpt>
      <trkpt lat="45.7531" lon="5.89929">
        <ele>802.25</ele>
        <time>2013-06-20T10:34:04Z</time>
      </trkpt>
      <trkpt lat="45.75296" lon="5.89951">
        <ele>801.76</ele>
        <time>2013-06-20T10:34:10Z</time>
      </trkpt>
      <trkpt lat="45.75284" lon="5.89975">
        <ele>801.13</ele>
        <time>2013-06-20T10:34:14Z</time>
      </trkpt>
      <trkpt lat="45.75273" lon="5.89998">
        <ele>800.47</ele>
        <time>2013-06-20T10:34:17Z</time>
      </trkpt>
      <trkpt lat="45.7526" lon="5.90024">
        <ele>799.64</ele>
        <time>2013-06-20T10:34:20Z</time>
      </trkpt>
      <trkpt lat="45.75246" lon="5.90047">
        <ele>799.15</ele>
        <time>2013-06-20T10:34:23Z</time>
      </trkpt>
      <trkpt lat="45.75231" lon="5.90071">
        <ele>799.92</ele>
        <time>2013-06-20T10:34:26Z</time>
      </trkpt>
      <trkpt lat="45.75219" lon="5.90095">
        <ele>800.98</ele>
        <time>2013-06-20T10:34:30Z</time>
      </trkpt>
      <trkpt lat="45.75209" lon="5.90119">
        <ele>801.15</ele>
        <time>2013-06-20T10:34:38Z</time>
      </trkpt>
      <trkpt lat="45.75198" lon="5.9014">
        <ele>799.18</ele>
        <time>2013-06-20T10:34:45Z</time>
      </trkpt>
      <trkpt lat="45.75185" lon="5.90159">
        <ele>797.94</ele>
        <time>2013-06-20T10:34:51Z</time>
      </trkpt>
      <trkpt lat="45.7517" lon="5.90175">
        <ele>797.7</ele>
        <time>2013-06-20T10:34:59Z</time>
      </trkpt>
      <trkpt lat="45.75151" lon="5.90181">
        <ele>799.16</ele>
        <time>2013-06-20T10:35:11Z</time>
      </trkpt>
      <trkpt lat="45.75132" lon="5.9018">
        <ele>802.37</ele>
        <time>2013-06-20T10:35:21Z</time>
      </trkpt>
      <trkpt lat="45.75116" lon="5.9017">
        <ele>802.89</ele>
        <time>2013-06-20T10:35:32Z</time>
      </trkpt>
      <trkpt lat="45.75102" lon="5.90151">
        <ele>802.36</ele>
        <time>2013-06-20T10:35:39Z</time>
      </trkpt>
      <trkpt lat="45.75088" lon="5.90129">
        <ele>802.16</ele>
        <time>2013-06-20T10:35:44Z</time>
      </trkpt>
      <trkpt lat="45.75072" lon="5.90109">
        <ele>802.5</ele>
        <time>2013-06-20T10:35:49Z</time>
      </trkpt>
      <trkpt lat="45.75057" lon="5.90091">
        <ele>802.14</ele>
        <time>2013-06-20T10:35:58Z</time>
      </trkpt>
      <trkpt lat="45.75038" lon="5.90088">
        <ele>803.54</ele>
        <time>2013-06-20T10:36:07Z</time>
      </trkpt>
      <trkpt lat="45.75021" lon="5.90101">
        <ele>803.42</ele>
        <time>2013-06-20T10:36:15Z</time>
      </trkpt>
      <trkpt lat="45.75003" lon="5.90108">
        <ele>805.07</ele>
        <time>2013-06-20T10:36:24Z</time>
      </trkpt>
      <trkpt lat="45.74985" lon="5.90121">
        <ele>805.32</ele>
        <time>2013-06-20T10:36:34Z</time>
      </trkpt>
      <trkpt lat="45.7497" lon="5.90136">
        <ele>807.27</ele>
        <time>2013-06-20T10:36:39Z</time>
      </trkpt>
      <trkpt lat="45.74955" lon="5.90154">
        <ele>809.92</ele>
        <time>2013-06-20T10:36:45Z</time>
      </trkpt>
      <trkpt lat="45.74938" lon="5.90168">
        <ele>811.17</ele>
        <time>2013-06-20T10:36:53Z</time>
      </trkpt>
      <trkpt lat="45.74922" lon="5.90183">
        <ele>812.97</ele>
        <time>2013-06-20T10:37:01Z</time>
      </trkpt>
      <trkpt lat="45.74907" lon="5.90202">
        <ele>814.91</ele>
        <time>2013-06-20T10:37:11Z</time>
      </trkpt>
      <trkpt lat="45.74892" lon="5.90219">
        <ele>817.02</ele>
        <time>2013-06-20T10:37:23Z</time>
      </trkpt>
      <trkpt lat="45.74877" lon="5.90239">
        <ele>817.91</ele>
        <time>2013-06-20T10:37:30Z</time>
      </trkpt>
      <trkpt lat="45.74864" lon="5.90257">
        <ele>819.61</ele>
        <time>2013-06-20T10:37:37Z</time>
      </trkpt>
      <trkpt lat="45.7485" lon="5.90275">
        <ele>820.03</ele>
        <time>2013-06-20T10:37:43Z</time>
      </trkpt>
      <trkpt lat="45.74836" lon="5.90295">
        <ele>819.98</ele>
        <time>2013-06-20T10:37:48Z</time>
      </trkpt>
      <trkpt lat="45.7482" lon="5.9031">
        <ele>819.23</ele>
        <time>2013-06-20T10:37:54Z</time>
      </trkpt>
      <trkpt lat="45.74801" lon="5.90315">
        <ele>817.96</ele>
        <time>2013-06-20T10:38:01Z</time>
      </trkpt>
      <trkpt lat="45.74784" lon="5.90306">
        <ele>816.15</ele>
        <time>2013-06-20T10:38:10Z</time>
      </trkpt>
      <trkpt lat="45.74769" lon="5.90289">
        <ele>815.45</ele>
        <time>2013-06-20T10:38:20Z</time>
      </trkpt>
      <trkpt lat="45.74755" lon="5.90272">
        <ele>815.77</ele>
        <time>2013-06-20T10:38:28Z</time>
      </trkpt>
      <trkpt lat="45.74737" lon="5.90263">
        <ele>830.12</ele>
        <time>2013-06-20T10:40:52Z</time>
      </trkpt>
      <trkpt lat="45.74723" lon="5.90281">
        <ele>832.37</ele>
        <time>2013-06-20T10:41:12Z</time>
      </trkpt>
      <trkpt lat="45.74706" lon="5.9029">
        <ele>834.35</ele>
        <time>2013-06-20T10:41:31Z</time>
      </trkpt>
      <trkpt lat="45.74698" lon="5.90316">
        <ele>837.96</ele>
        <time>2013-06-20T10:41:44Z</time>
      </trkpt>
      <trkpt lat="45.74688" lon="5.90341">
        <ele>837.13</ele>
        <time>2013-06-20T10:41:52Z</time>
      </trkpt>
      <trkpt lat="45.74677" lon="5.90361">
        <ele>836.32</ele>
        <time>2013-06-20T10:41:59Z</time>
      </trkpt>
      <trkpt lat="45.74662" lon="5.9038">
        <ele>835.26</ele>
        <time>2013-06-20T10:42:06Z</time>
      </trkpt>
      <trkpt lat="45.74647" lon="5.90403">
        <ele>834.03</ele>
        <time>2013-06-20T10:42:14Z</time>
      </trkpt>
      <trkpt lat="45.74635" lon="5.90426">
        <ele>834.04</ele>
        <time>2013-06-20T10:42:22Z</time>
      </trkpt>
      <trkpt lat="45.74621" lon="5.90445">
        <ele>833.4</ele>
        <time>2013-06-20T10:42:32Z</time>
      </trkpt>
      <trkpt lat="45.74609" lon="5.90468">
        <ele>832.74</ele>
        <time>2013-06-20T10:42:41Z</time>
      </trkpt>
      <trkpt lat="45.74593" lon="5.90481">
        <ele>833.31</ele>
        <time>2013-06-20T10:52:41Z</time>
      </trkpt>
      <trkpt lat="45.7459" lon="5.9051">
        <ele>835.57</ele>
        <time>2013-06-20T10:52:48Z</time>
      </trkpt>
      <trkpt lat="45.74584" lon="5.90535">
        <ele>830.43</ele>
        <time>2013-06-20T10:53:01Z</time>
      </trkpt>
      <trkpt lat="45.7458" lon="5.90562">
        <ele>823.84</ele>
        <time>2013-06-20T10:53:25Z</time>
      </trkpt>
      <trkpt lat="45.74586" lon="5.90586">
        <ele>821.78</ele>
        <time>2013-06-20T10:53:40Z</time>
      </trkpt>
      <trkpt lat="45.74568" lon="5.90587">
        <ele>818.88</ele>
        <time>2013-06-20T10:54:00Z</time>
      </trkpt>
      <trkpt lat="45.74555" lon="5.90568">
        <ele>815.99</ele>
        <time>2013-06-20T10:54:14Z</time>
      </trkpt>
      <trkpt lat="45.74538" lon="5.90558">
        <ele>812.76</ele>
        <time>2013-06-20T10:54:25Z</time>
      </trkpt>
      <trkpt lat="45.74523" lon="5.90541">
        <ele>810.09</ele>
        <time>2013-06-20T10:54:45Z</time>
      </trkpt>
      <trkpt lat="45.74512" lon="5.90519">
        <ele>807.87</ele>
        <time>2013-06-20T10:54:52Z</time>
      </trkpt>
      <trkpt lat="45.74498" lon="5.905">
        <ele>803.61</ele>
        <time>2013-06-20T10:55:16Z</time>
      </trkpt>
      <trkpt lat="45.74498" lon="5.90527">
        <ele>802.38</ele>
        <time>2013-06-20T10:55:44Z</time>
      </trkpt>
      <trkpt lat="45.74493" lon="5.90555">
        <ele>800.04</ele>
        <time>2013-06-20T10:55:53Z</time>
      </trkpt>
      <trkpt lat="45.74489" lon="5.90583">
        <ele>795.46</ele>
        <time>2013-06-20T10:56:01Z</time>
      </trkpt>
      <trkpt lat="45.74487" lon="5.90609">
        <ele>792.84</ele>
        <time>2013-06-20T10:56:13Z</time>
      </trkpt>
      <trkpt lat="45.7448" lon="5.90635">
        <ele>789.84</ele>
        <time>2013-06-20T10:56:26Z</time>
      </trkpt>
      <trkpt lat="45.74471" lon="5.90659">
        <ele>787.34</ele>
        <time>2013-06-20T10:56:32Z</time>
      </trkpt>
      <trkpt lat="45.74465" lon="5.90683">
        <ele>784.34</ele>
        <time>2013-06-20T10:56:37Z</time>
      </trkpt>
      <trkpt lat="45.74455" lon="5.90706">
        <ele>781.96</ele>
        <time>2013-06-20T10:56:43Z</time>
      </trkpt>
      <trkpt lat="45.74446" lon="5.90733">
        <ele>778.61</ele>
        <time>2013-06-20T10:56:50Z</time>
      </trkpt>
      <trkpt lat="45.74436" lon="5.90761">
        <ele>774.81</ele>
        <time>2013-06-20T10:56:55Z</time>
      </trkpt>
      <trkpt lat="45.74425" lon="5.90782">
        <ele>770.65</ele>
        <time>2013-06-20T10:56:59Z</time>
      </trkpt>
      <trkpt lat="45.74408" lon="5.90773">
        <ele>762.18</ele>
        <time>2013-06-20T10:57:22Z</time>
      </trkpt>
      <trkpt lat="45.74394" lon="5.90752">
        <ele>751.03</ele>
        <time>2013-06-20T10:57:42Z</time>
      </trkpt>
      <trkpt lat="45.74375" lon="5.90751">
        <ele>747.72</ele>
        <time>2013-06-20T10:57:56Z</time>
      </trkpt>
      <trkpt lat="45.74355" lon="5.90758">
        <ele>745.73</ele>
        <time>2013-06-20T10:58:03Z</time>
      </trkpt>
      <trkpt lat="45.74336" lon="5.9076">
        <ele>743.32</ele>
        <time>2013-06-20T10:58:09Z</time>
      </trkpt>
      <trkpt lat="45.7432" lon="5.90745">
        <ele>739.94</ele>
        <time>2013-06-20T10:58:25Z</time>
      </trkpt>
      <trkpt lat="45.74329" lon="5.90722">
        <ele>735.94</ele>
        <time>2013-06-20T10:58:33Z</time>
      </trkpt>
      <trkpt lat="45.74331" lon="5.90694">
        <ele>733.93</ele>
        <time>2013-06-20T10:58:42Z</time>
      </trkpt>
      <trkpt lat="45.74333" lon="5.90666">
        <ele>733.41</ele>
        <time>2013-06-20T10:58:50Z</time>
      </trkpt>
      <trkpt lat="45.74335" lon="5.90639">
        <ele>734.59</ele>
        <time>2013-06-20T10:58:59Z</time>
      </trkpt>
      <trkpt lat="45.7434" lon="5.90613">
        <ele>735.76</ele>
        <time>2013-06-20T10:59:08Z</time>
      </trkpt>
      <trkpt lat="45.74345" lon="5.90586">
        <ele>734.7</ele>
        <time>2013-06-20T10:59:19Z</time>
      </trkpt>
      <trkpt lat="45.74348" lon="5.90558">
        <ele>732.44</ele>
        <time>2013-06-20T10:59:28Z</time>
      </trkpt>
      <trkpt lat="45.7435" lon="5.90532">
        <ele>732.43</ele>
        <time>2013-06-20T10:59:36Z</time>
      </trkpt>
      <trkpt lat="45.74353" lon="5.90504">
        <ele>733.05</ele>
        <time>2013-06-20T10:59:45Z</time>
      </trkpt>
      <trkpt lat="45.74358" lon="5.9048">
        <ele>733.69</ele>
        <time>2013-06-20T10:59:53Z</time>
      </trkpt>
      <trkpt lat="45.74366" lon="5.90456">
        <ele>734.13</ele>
        <time>2013-06-20T11:00:01Z</time>
      </trkpt>
      <trkpt lat="45.74375" lon="5.90433">
        <ele>734.52</ele>
        <time>2013-06-20T11:00:08Z</time>
      </trkpt>
      <trkpt lat="45.7437" lon="5.90408">
        <ele>735.19</ele>
        <time>2013-06-20T11:00:20Z</time>
      </trkpt>
      <trkpt lat="45.7438" lon="5.90386">
        <ele>734.68</ele>
        <time>2013-06-20T11:00:30Z</time>
      </trkpt>
      <trkpt lat="45.74392" lon="5.90362">
        <ele>734.39</ele>
        <time>2013-06-20T11:00:37Z</time>
      </trkpt>
      <trkpt lat="45.744" lon="5.90336">
        <ele>734.22</ele>
        <time>2013-06-20T11:00:43Z</time>
      </trkpt>
      <trkpt lat="45.74402" lon="5.90309">
        <ele>733.79</ele>
        <time>2013-06-20T11:00:48Z</time>
      </trkpt>
      <trkpt lat="45.74406" lon="5.90279">
        <ele>733.66</ele>
        <time>2013-06-20T11:00:54Z</time>
      </trkpt>
      <trkpt lat="45.74408" lon="5.90251">
        <ele>734.5</ele>
        <time>2013-06-20T11:01:00Z</time>
      </trkpt>
      <trkpt lat="45.74389" lon="5.9025">
        <ele>733.36</ele>
        <time>2013-06-20T11:01:26Z</time>
      </trkpt>
      <trkpt lat="45.7437" lon="5.90248">
        <ele>734.25</ele>
        <time>2013-06-20T11:01:34Z</time>
      </trkpt>
      <trkpt lat="45.7435" lon="5.90246">
        <ele>734.51</ele>
        <time>2013-06-20T11:01:42Z</time>
      </trkpt>
      <trkpt lat="45.74332" lon="5.90253">
        <ele>729.25</ele>
        <time>2013-06-20T11:01:49Z</time>
      </trkpt>
      <trkpt lat="45.74316" lon="5.90265">
        <ele>728.38</ele>
        <time>2013-06-20T11:01:57Z</time>
      </trkpt>
      <trkpt lat="45.74301" lon="5.90282">
        <ele>726.93</ele>
        <time>2013-06-20T11:02:06Z</time>
      </trkpt>
      <trkpt lat="45.74284" lon="5.90297">
        <ele>725.7</ele>
        <time>2013-06-20T11:02:14Z</time>
      </trkpt>
      <trkpt lat="45.74268" lon="5.90312">
        <ele>725.56</ele>
        <time>2013-06-20T11:02:22Z</time>
      </trkpt>
      <trkpt lat="45.74251" lon="5.90329">
        <ele>726.26</ele>
        <time>2013-06-20T11:02:31Z</time>
      </trkpt>
      <trkpt lat="45.74235" lon="5.90345">
        <ele>726.71</ele>
        <time>2013-06-20T11:02:37Z</time>
      </trkpt>
      <trkpt lat="45.74224" lon="5.90367">
        <ele>723.77</ele>
        <time>2013-06-20T11:02:43Z</time>
      </trkpt>
      <trkpt lat="45.7421" lon="5.90387">
        <ele>719.72</ele>
        <time>2013-06-20T11:02:49Z</time>
      </trkpt>
      <trkpt lat="45.7419" lon="5.90398">
        <ele>717.44</ele>
        <time>2013-06-20T11:02:55Z</time>
      </trkpt>
      <trkpt lat="45.74173" lon="5.90407">
        <ele>717.46</ele>
        <time>2013-06-20T11:03:01Z</time>
      </trkpt>
      <trkpt lat="45.74156" lon="5.90419">
        <ele>718.11</ele>
        <time>2013-06-20T11:03:07Z</time>
      </trkpt>
      <trkpt lat="45.74139" lon="5.90433">
        <ele>718.47</ele>
        <time>2013-06-20T11:03:12Z</time>
      </trkpt>
      <trkpt lat="45.74124" lon="5.90452">
        <ele>718.62</ele>
        <time>2013-06-20T11:03:16Z</time>
      </trkpt>
      <trkpt lat="45.74111" lon="5.90472">
        <ele>718.33</ele>
        <time>2013-06-20T11:03:19Z</time>
      </trkpt>
      <trkpt lat="45.74095" lon="5.90496">
        <ele>717.11</ele>
        <time>2013-06-20T11:03:22Z</time>
      </trkpt>
      <trkpt lat="45.74079" lon="5.90518">
        <ele>716.49</ele>
        <time>2013-06-20T11:03:25Z</time>
      </trkpt>
      <trkpt lat="45.74059" lon="5.90538">
        <ele>716.21</ele>
        <time>2013-06-20T11:03:28Z</time>
      </trkpt>
      <trkpt lat="45.74036" lon="5.90557">
        <ele>714.87</ele>
        <time>2013-06-20T11:03:31Z</time>
      </trkpt>
      <trkpt lat="45.74014" lon="5.90574">
        <ele>713.26</ele>
        <time>2013-06-20T11:03:34Z</time>
      </trkpt>
      <trkpt lat="45.73995" lon="5.90588">
        <ele>712.37</ele>
        <time>2013-06-20T11:03:37Z</time>
      </trkpt>
      <trkpt lat="45.73976" lon="5.90602">
        <ele>712.03</ele>
        <time>2013-06-20T11:03:41Z</time>
      </trkpt>
      <trkpt lat="45.73961" lon="5.90615">
        <ele>711.61</ele>
        <time>2013-06-20T11:03:45Z</time>
      </trkpt>
      <trkpt lat="45.73946" lon="5.9063">
        <ele>710.66</ele>
        <time>2013-06-20T11:03:49Z</time>
      </trkpt>
      <trkpt lat="45.7393" lon="5.90643">
        <ele>708.7</ele>
        <time>2013-06-20T11:03:55Z</time>
      </trkpt>
      <trkpt lat="45.73913" lon="5.9066">
        <ele>706.35</ele>
        <time>2013-06-20T11:04:02Z</time>
      </trkpt>
      <trkpt lat="45.73918" lon="5.90632">
        <ele>702.25</ele>
        <time>2013-06-20T11:04:12Z</time>
      </trkpt>
      <trkpt lat="45.7391" lon="5.90603">
        <ele>700.95</ele>
        <time>2013-06-20T11:04:17Z</time>
      </trkpt>
      <trkpt lat="45.73898" lon="5.9058">
        <ele>700.15</ele>
        <time>2013-06-20T11:04:20Z</time>
      </trkpt>
      <trkpt lat="45.73884" lon="5.9056">
        <ele>699.4</ele>
        <time>2013-06-20T11:04:23Z</time>
      </trkpt>
      <trkpt lat="45.73863" lon="5.90537">
        <ele>698.06</ele>
        <time>2013-06-20T11:04:27Z</time>
      </trkpt>
      <trkpt lat="45.73846" lon="5.90524">
        <ele>696.68</ele>
        <time>2013-06-20T11:04:29Z</time>
      </trkpt>
      <trkpt lat="45.73827" lon="5.90508">
        <ele>695</ele>
        <time>2013-06-20T11:04:32Z</time>
      </trkpt>
      <trkpt lat="45.73808" lon="5.90494">
        <ele>694.01</ele>
        <time>2013-06-20T11:04:36Z</time>
      </trkpt>
      <trkpt lat="45.73787" lon="5.90483">
        <ele>693.44</ele>
        <time>2013-06-20T11:04:41Z</time>
      </trkpt>
      <trkpt lat="45.73767" lon="5.90478">
        <ele>690.64</ele>
        <time>2013-06-20T11:04:47Z</time>
      </trkpt>
      <trkpt lat="45.73749" lon="5.90495">
        <ele>683.63</ele>
        <time>2013-06-20T11:04:53Z</time>
      </trkpt>
      <trkpt lat="45.73732" lon="5.90512">
        <ele>680.01</ele>
        <time>2013-06-20T11:04:58Z</time>
      </trkpt>
      <trkpt lat="45.73715" lon="5.90522">
        <ele>678.85</ele>
        <time>2013-06-20T11:05:02Z</time>
      </trkpt>
      <trkpt lat="45.73693" lon="5.90519">
        <ele>677.51</ele>
        <time>2013-06-20T11:05:06Z</time>
      </trkpt>
      <trkpt lat="45.73672" lon="5.90507">
        <ele>676.22</ele>
        <time>2013-06-20T11:05:10Z</time>
      </trkpt>
      <trkpt lat="45.73654" lon="5.90498">
        <ele>675.27</ele>
        <time>2013-06-20T11:05:14Z</time>
      </trkpt>
      <trkpt lat="45.73634" lon="5.90492">
        <ele>671.8</ele>
        <time>2013-06-20T11:05:21Z</time>
      </trkpt>
      <trkpt lat="45.73615" lon="5.90494">
        <ele>668.81</ele>
        <time>2013-06-20T11:05:30Z</time>
      </trkpt>
      <trkpt lat="45.73595" lon="5.90496">
        <ele>667.99</ele>
        <time>2013-06-20T11:05:38Z</time>
      </trkpt>
      <trkpt lat="45.73576" lon="5.90491">
        <ele>665.82</ele>
        <time>2013-06-20T11:05:47Z</time>
      </trkpt>
      <trkpt lat="45.73558" lon="5.90495">
        <ele>664.81</ele>
        <time>2013-06-20T11:05:56Z</time>
      </trkpt>
      <trkpt lat="45.73547" lon="5.90516">
        <ele>661.72</ele>
        <time>2013-06-20T11:06:04Z</time>
      </trkpt>
      <trkpt lat="45.73538" lon="5.90541">
        <ele>658.59</ele>
        <time>2013-06-20T11:06:10Z</time>
      </trkpt>
      <trkpt lat="45.73532" lon="5.90569">
        <ele>654.38</ele>
        <time>2013-06-20T11:06:16Z</time>
      </trkpt>
      <trkpt lat="45.73518" lon="5.90589">
        <ele>641.25</ele>
        <time>2013-06-20T11:06:34Z</time>
      </trkpt>
      <trkpt lat="45.73499" lon="5.90598">
        <ele>637.22</ele>
        <time>2013-06-20T11:07:04Z</time>
      </trkpt>
      <trkpt lat="45.73482" lon="5.90606">
        <ele>633.31</ele>
        <time>2013-06-20T11:07:30Z</time>
      </trkpt>
      <trkpt lat="45.73464" lon="5.90604">
        <ele>631.96</ele>
        <time>2013-06-20T11:07:49Z</time>
      </trkpt>
      <trkpt lat="45.73461" lon="5.9063">
        <ele>634.92</ele>
        <time>2013-06-20T11:08:53Z</time>
      </trkpt>
      <trkpt lat="45.72798" lon="5.90751">
        <ele>611.78</ele>
        <time>2013-06-20T11:11:23Z</time>
      </trkpt>
      <trkpt lat="45.7265" lon="5.90732">
        <ele>557.03</ele>
        <time>2013-06-20T11:12:47Z</time>
      </trkpt>
      <trkpt lat="45.72478" lon="5.89886">
        <ele>438.38</ele>
        <time>2013-06-20T11:14:26Z</time>
      </trkpt>
      <trkpt lat="45.72412" lon="5.89747">
        <ele>422.55</ele>
        <time>2013-06-20T11:14:44Z</time>
      </trkpt>
      <trkpt lat="45.72452" lon="5.89709">
        <ele>394.21</ele>
        <time>2013-06-20T11:14:51Z</time>
      </trkpt>
      <trkpt lat="45.72464" lon="5.89685">
        <ele>367.59</ele>
        <time>2013-06-20T11:15:05Z</time>
      </trkpt>
      <trkpt lat="45.72445" lon="5.8968">
        <ele>370.12</ele>
        <time>2013-06-20T11:16:03Z</time>
      </trkpt>
      <trkpt lat="45.72428" lon="5.89673">
        <ele>369.79</ele>
        <time>2013-06-20T11:16:07Z</time>
      </trkpt>
      <trkpt lat="45.72407" lon="5.89668">
        <ele>369.36</ele>
        <time>2013-06-20T11:16:11Z</time>
      </trkpt>
      <trkpt lat="45.72385" lon="5.89668">
        <ele>368.75</ele>
        <time>2013-06-20T11:16:15Z</time>
      </trkpt>
      <trkpt lat="45.72361" lon="5.89667">
        <ele>368.28</ele>
        <time>2013-06-20T11:16:19Z</time>
      </trkpt>
      <trkpt lat="45.72339" lon="5.89668">
        <ele>367.14</ele>
        <time>2013-06-20T11:16:23Z</time>
      </trkpt>
      <trkpt lat="45.72316" lon="5.89668">
        <ele>366.13</ele>
        <time>2013-06-20T11:16:27Z</time>
      </trkpt>
      <trkpt lat="45.72293" lon="5.89668">
        <ele>365.67</ele>
        <time>2013-06-20T11:16:31Z</time>
      </trkpt>
      <trkpt lat="45.72269" lon="5.89672">
        <ele>366.73</ele>
        <time>2013-06-20T11:16:35Z</time>
      </trkpt>
      <trkpt lat="45.72251" lon="5.89671">
        <ele>367.63</ele>
        <time>2013-06-20T11:16:38Z</time>
      </trkpt>
      <trkpt lat="45.72233" lon="5.89669">
        <ele>367.64</ele>
        <time>2013-06-20T11:16:41Z</time>
      </trkpt>
      <trkpt lat="45.72213" lon="5.89669">
        <ele>366.84</ele>
        <time>2013-06-20T11:16:44Z</time>
      </trkpt>
      <trkpt lat="45.72191" lon="5.89667">
        <ele>365.69</ele>
        <time>2013-06-20T11:16:47Z</time>
      </trkpt>
      <trkpt lat="45.72168" lon="5.89665">
        <ele>364.4</ele>
        <time>2013-06-20T11:16:50Z</time>
      </trkpt>
      <trkpt lat="45.72143" lon="5.89662">
        <ele>362.89</ele>
        <time>2013-06-20T11:16:53Z</time>
      </trkpt>
      <trkpt lat="45.72117" lon="5.89661">
        <ele>361.63</ele>
        <time>2013-06-20T11:16:56Z</time>
      </trkpt>
      <trkpt lat="45.72091" lon="5.89655">
        <ele>360.65</ele>
        <time>2013-06-20T11:16:59Z</time>
      </trkpt>
      <trkpt lat="45.72066" lon="5.89642">
        <ele>360.3</ele>
        <time>2013-06-20T11:17:02Z</time>
      </trkpt>
      <trkpt lat="45.72048" lon="5.89632">
        <ele>359.86</ele>
        <time>2013-06-20T11:17:04Z</time>
      </trkpt>
      <trkpt lat="45.72029" lon="5.89627">
        <ele>359.16</ele>
        <time>2013-06-20T11:17:06Z</time>
      </trkpt>
      <trkpt lat="45.7201" lon="5.89624">
        <ele>357.88</ele>
        <time>2013-06-20T11:17:08Z</time>
      </trkpt>
      <trkpt lat="45.71989" lon="5.89618">
        <ele>356.62</ele>
        <time>2013-06-20T11:17:10Z</time>
      </trkpt>
      <trkpt lat="45.71967" lon="5.89611">
        <ele>355.25</ele>
        <time>2013-06-20T11:17:12Z</time>
      </trkpt>
      <trkpt lat="45.71945" lon="5.89603">
        <ele>353.72</ele>
        <time>2013-06-20T11:17:14Z</time>
      </trkpt>
      <trkpt lat="45.71923" lon="5.89592">
        <ele>352.24</ele>
        <time>2013-06-20T11:17:16Z</time>
      </trkpt>
      <trkpt lat="45.71899" lon="5.89582">
        <ele>349.69</ele>
        <time>2013-06-20T11:17:18Z</time>
      </trkpt>
      <trkpt lat="45.71875" lon="5.8958">
        <ele>347.03</ele>
        <time>2013-06-20T11:17:20Z</time>
      </trkpt>
      <trkpt lat="45.71855" lon="5.89577">
        <ele>344.72</ele>
        <time>2013-06-20T11:17:22Z</time>
      </trkpt>
      <trkpt lat="45.71856" lon="5.89543">
        <ele>339.62</ele>
        <time>2013-06-20T11:17:26Z</time>
      </trkpt>
      <trkpt lat="45.71869" lon="5.8952">
        <ele>334.97</ele>
        <time>2013-06-20T11:17:28Z</time>
      </trkpt>
      <trkpt lat="45.71882" lon="5.89501">
        <ele>331.21</ele>
        <time>2013-06-20T11:17:30Z</time>
      </trkpt>
      <trkpt lat="45.71898" lon="5.89485">
        <ele>328.46</ele>
        <time>2013-06-20T11:17:32Z</time>
      </trkpt>
      <trkpt lat="45.71917" lon="5.89472">
        <ele>326.01</ele>
        <time>2013-06-20T11:17:34Z</time>
      </trkpt>
      <trkpt lat="45.71936" lon="5.89459">
        <ele>324</ele>
        <time>2013-06-20T11:17:36Z</time>
      </trkpt>
      <trkpt lat="45.71957" lon="5.89444">
        <ele>322.12</ele>
        <time>2013-06-20T11:17:38Z</time>
      </trkpt>
      <trkpt lat="45.71977" lon="5.89428">
        <ele>320.48</ele>
        <time>2013-06-20T11:17:40Z</time>
      </trkpt>
      <trkpt lat="45.71995" lon="5.89413">
        <ele>318.74</ele>
        <time>2013-06-20T11:17:42Z</time>
      </trkpt>
      <trkpt lat="45.72012" lon="5.89396">
        <ele>316.84</ele>
        <time>2013-06-20T11:17:44Z</time>
      </trkpt>
      <trkpt lat="45.72031" lon="5.89372">
        <ele>314.76</ele>
        <time>2013-06-20T11:17:47Z</time>
      </trkpt>
      <trkpt lat="45.7203" lon="5.89345">
        <ele>311.72</ele>
        <time>2013-06-20T11:17:53Z</time>
      </trkpt>
      <trkpt lat="45.72008" lon="5.89336">
        <ele>310.5</ele>
        <time>2013-06-20T11:17:57Z</time>
      </trkpt>
      <trkpt lat="45.71989" lon="5.89329">
        <ele>309.52</ele>
        <time>2013-06-20T11:18:00Z</time>
      </trkpt>
      <trkpt lat="45.71971" lon="5.89309">
        <ele>307.94</ele>
        <time>2013-06-20T11:18:03Z</time>
      </trkpt>
      <trkpt lat="45.7196" lon="5.89288">
        <ele>305.86</ele>
        <time>2013-06-20T11:18:05Z</time>
      </trkpt>
      <trkpt lat="45.71951" lon="5.89264">
        <ele>303.76</ele>
        <time>2013-06-20T11:18:07Z</time>
      </trkpt>
      <trkpt lat="45.71944" lon="5.89237">
        <ele>301.72</ele>
        <time>2013-06-20T11:18:09Z</time>
      </trkpt>
      <trkpt lat="45.71937" lon="5.89209">
        <ele>299.77</ele>
        <time>2013-06-20T11:18:11Z</time>
      </trkpt>
      <trkpt lat="45.71932" lon="5.89184">
        <ele>297.88</ele>
        <time>2013-06-20T11:18:13Z</time>
      </trkpt>
      <trkpt lat="45.71926" lon="5.89157">
        <ele>295.62</ele>
        <time>2013-06-20T11:18:16Z</time>
      </trkpt>
      <trkpt lat="45.71911" lon="5.89141">
        <ele>292.56</ele>
        <time>2013-06-20T11:22:32Z</time>
      </trkpt>
      <trkpt lat="45.71891" lon="5.8915">
        <ele>292.57</ele>
        <time>2013-06-20T11:22:37Z</time>
      </trkpt>
      <trkpt lat="45.71872" lon="5.89158">
        <ele>292.92</ele>
        <time>2013-06-20T11:22:41Z</time>
      </trkpt>
      <trkpt lat="45.71854" lon="5.89166">
        <ele>293.43</ele>
        <time>2013-06-20T11:22:45Z</time>
      </trkpt>
      <trkpt lat="45.71836" lon="5.89167">
        <ele>294.09</ele>
        <time>2013-06-20T11:22:49Z</time>
      </trkpt>
      <trkpt lat="45.71815" lon="5.89164">
        <ele>294.71</ele>
        <time>2013-06-20T11:22:54Z</time>
      </trkpt>
      <trkpt lat="45.71796" lon="5.89168">
        <ele>293.88</ele>
        <time>2013-06-20T11:22:58Z</time>
      </trkpt>
      <trkpt lat="45.71778" lon="5.89178">
        <ele>293.09</ele>
        <time>2013-06-20T11:23:02Z</time>
      </trkpt>
      <trkpt lat="45.71758" lon="5.89186">
        <ele>292.85</ele>
        <time>2013-06-20T11:23:06Z</time>
      </trkpt>
      <trkpt lat="45.71738" lon="5.8919">
        <ele>292.88</ele>
        <time>2013-06-20T11:23:10Z</time>
      </trkpt>
      <trkpt lat="45.71717" lon="5.89191">
        <ele>292.19</ele>
        <time>2013-06-20T11:23:14Z</time>
      </trkpt>
      <trkpt lat="45.71697" lon="5.89197">
        <ele>292.04</ele>
        <time>2013-06-20T11:23:18Z</time>
      </trkpt>
      <trkpt lat="45.71679" lon="5.89204">
        <ele>291.93</ele>
        <time>2013-06-20T11:23:22Z</time>
      </trkpt>
      <trkpt lat="45.7166" lon="5.89211">
        <ele>291.89</ele>
        <time>2013-06-20T11:23:26Z</time>
      </trkpt>
      <trkpt lat="45.7164" lon="5.89216">
        <ele>291.35</ele>
        <time>2013-06-20T11:23:30Z</time>
      </trkpt>
      <trkpt lat="45.7162" lon="5.89219">
        <ele>291.12</ele>
        <time>2013-06-20T11:23:34Z</time>
      </trkpt>
      <trkpt lat="45.71597" lon="5.89225">
        <ele>291.02</ele>
        <time>2013-06-20T11:23:38Z</time>
      </trkpt>
      <trkpt lat="45.71578" lon="5.89228">
        <ele>290.87</ele>
        <time>2013-06-20T11:23:41Z</time>
      </trkpt>
      <trkpt lat="45.71558" lon="5.89234">
        <ele>290.68</ele>
        <time>2013-06-20T11:23:44Z</time>
      </trkpt>
      <trkpt lat="45.7154" lon="5.89242">
        <ele>290.72</ele>
        <time>2013-06-20T11:23:47Z</time>
      </trkpt>
      <trkpt lat="45.71521" lon="5.8925">
        <ele>290.65</ele>
        <time>2013-06-20T11:23:50Z</time>
      </trkpt>
      <trkpt lat="45.71501" lon="5.89258">
        <ele>290.44</ele>
        <time>2013-06-20T11:23:53Z</time>
      </trkpt>
      <trkpt lat="45.71481" lon="5.89266">
        <ele>289.97</ele>
        <time>2013-06-20T11:23:56Z</time>
      </trkpt>
      <trkpt lat="45.7146" lon="5.89275">
        <ele>289.32</ele>
        <time>2013-06-20T11:23:59Z</time>
      </trkpt>
      <trkpt lat="45.71437" lon="5.89285">
        <ele>288.71</ele>
        <time>2013-06-20T11:24:02Z</time>
      </trkpt>
      <trkpt lat="45.71412" lon="5.89296">
        <ele>288.27</ele>
        <time>2013-06-20T11:24:05Z</time>
      </trkpt>
      <trkpt lat="45.71393" lon="5.89303">
        <ele>287.57</ele>
        <time>2013-06-20T11:24:07Z</time>
      </trkpt>
      <trkpt lat="45.71374" lon="5.89312">
        <ele>286.73</ele>
        <time>2013-06-20T11:24:09Z</time>
      </trkpt>
      <trkpt lat="45.71356" lon="5.89321">
        <ele>285.77</ele>
        <time>2013-06-20T11:24:11Z</time>
      </trkpt>
      <trkpt lat="45.71336" lon="5.89327">
        <ele>284.02</ele>
        <time>2013-06-20T11:24:14Z</time>
      </trkpt>
      <trkpt lat="45.71315" lon="5.8933">
        <ele>281.19</ele>
        <time>2013-06-20T11:24:18Z</time>
      </trkpt>
      <trkpt lat="45.71292" lon="5.89341">
        <ele>279.12</ele>
        <time>2013-06-20T11:24:22Z</time>
      </trkpt>
      <trkpt lat="45.71271" lon="5.89338">
        <ele>278.26</ele>
        <time>2013-06-20T11:24:25Z</time>
      </trkpt>
      <trkpt lat="45.71248" lon="5.8933">
        <ele>277</ele>
        <time>2013-06-20T11:24:28Z</time>
      </trkpt>
      <trkpt lat="45.71224" lon="5.89322">
        <ele>275.19</ele>
        <time>2013-06-20T11:24:31Z</time>
      </trkpt>
      <trkpt lat="45.71198" lon="5.89315">
        <ele>273.43</ele>
        <time>2013-06-20T11:24:34Z</time>
      </trkpt>
      <trkpt lat="45.71172" lon="5.89313">
        <ele>271.73</ele>
        <time>2013-06-20T11:24:37Z</time>
      </trkpt>
      <trkpt lat="45.71147" lon="5.89317">
        <ele>269.88</ele>
        <time>2013-06-20T11:24:40Z</time>
      </trkpt>
      <trkpt lat="45.71127" lon="5.89322">
        <ele>268.51</ele>
        <time>2013-06-20T11:24:42Z</time>
      </trkpt>
      <trkpt lat="45.71108" lon="5.89329">
        <ele>266.94</ele>
        <time>2013-06-20T11:24:44Z</time>
      </trkpt>
      <trkpt lat="45.71088" lon="5.89336">
        <ele>265.48</ele>
        <time>2013-06-20T11:24:46Z</time>
      </trkpt>
      <trkpt lat="45.71067" lon="5.89344">
        <ele>264.26</ele>
        <time>2013-06-20T11:24:48Z</time>
      </trkpt>
      <trkpt lat="45.71046" lon="5.89353">
        <ele>263.04</ele>
        <time>2013-06-20T11:24:50Z</time>
      </trkpt>
      <trkpt lat="45.71025" lon="5.8936">
        <ele>261.82</ele>
        <time>2013-06-20T11:24:52Z</time>
      </trkpt>
      <trkpt lat="45.71003" lon="5.89363">
        <ele>260.67</ele>
        <time>2013-06-20T11:24:54Z</time>
      </trkpt>
      <trkpt lat="45.70984" lon="5.89359">
        <ele>259.42</ele>
        <time>2013-06-20T11:24:56Z</time>
      </trkpt>
      <trkpt lat="45.7096" lon="5.89355">
        <ele>257.25</ele>
        <time>2013-06-20T11:24:59Z</time>
      </trkpt>
      <trkpt lat="45.70936" lon="5.89361">
        <ele>254.88</ele>
        <time>2013-06-20T11:25:02Z</time>
      </trkpt>
      <trkpt lat="45.70918" lon="5.89369">
        <ele>253.27</ele>
        <time>2013-06-20T11:25:04Z</time>
      </trkpt>
      <trkpt lat="45.70896" lon="5.89379">
        <ele>251.13</ele>
        <time>2013-06-20T11:25:07Z</time>
      </trkpt>
      <trkpt lat="45.70886" lon="5.89357">
        <ele>247.71</ele>
        <time>2013-06-20T11:25:13Z</time>
      </trkpt>
      <trkpt lat="45.70894" lon="5.89331">
        <ele>245.69</ele>
        <time>2013-06-20T11:25:16Z</time>
      </trkpt>
      <trkpt lat="45.70902" lon="5.89305">
        <ele>244.13</ele>
        <time>2013-06-20T11:25:19Z</time>
      </trkpt>
      <trkpt lat="45.70907" lon="5.89277">
        <ele>242.73</ele>
        <time>2013-06-20T11:25:22Z</time>
      </trkpt>
      <trkpt lat="45.7091" lon="5.89246">
        <ele>241.62</ele>
        <time>2013-06-20T11:25:25Z</time>
      </trkpt>
      <trkpt lat="45.70911" lon="5.89216">
        <ele>240.69</ele>
        <time>2013-06-20T11:25:28Z</time>
      </trkpt>
      <trkpt lat="45.70908" lon="5.89183">
        <ele>240.2</ele>
        <time>2013-06-20T11:25:32Z</time>
      </trkpt>
      <trkpt lat="45.70901" lon="5.89158">
        <ele>240.1</ele>
        <time>2013-06-20T11:25:35Z</time>
      </trkpt>
      <trkpt lat="45.70892" lon="5.89133">
        <ele>240.02</ele>
        <time>2013-06-20T11:25:38Z</time>
      </trkpt>
      <trkpt lat="45.70889" lon="5.89107">
        <ele>239.9</ele>
        <time>2013-06-20T11:25:41Z</time>
      </trkpt>
      <trkpt lat="45.70884" lon="5.89082">
        <ele>239.53</ele>
        <time>2013-06-20T11:25:46Z</time>
      </trkpt>
      <trkpt lat="45.70863" lon="5.89079">
        <ele>239.31</ele>
        <time>2013-06-20T11:25:50Z</time>
      </trkpt>
      <trkpt lat="45.70844" lon="5.89073">
        <ele>239.88</ele>
        <time>2013-06-20T11:25:54Z</time>
      </trkpt>
      <trkpt lat="45.70825" lon="5.89067">
        <ele>240.55</ele>
        <time>2013-06-20T11:25:58Z</time>
      </trkpt>
      <trkpt lat="45.70805" lon="5.89059">
        <ele>240.81</ele>
        <time>2013-06-20T11:26:02Z</time>
      </trkpt>
      <trkpt lat="45.70786" lon="5.89045">
        <ele>240.76</ele>
        <time>2013-06-20T11:26:06Z</time>
      </trkpt>
      <trkpt lat="45.70766" lon="5.8902">
        <ele>240.89</ele>
        <time>2013-06-20T11:26:10Z</time>
      </trkpt>
      <trkpt lat="45.70756" lon="5.88995">
        <ele>241.23</ele>
        <time>2013-06-20T11:26:14Z</time>
      </trkpt>
      <trkpt lat="45.7075" lon="5.88965">
        <ele>241.21</ele>
        <time>2013-06-20T11:26:18Z</time>
      </trkpt>
      <trkpt lat="45.70748" lon="5.88934">
        <ele>241.17</ele>
        <time>2013-06-20T11:26:22Z</time>
      </trkpt>
      <trkpt lat="45.70748" lon="5.88902">
        <ele>240.59</ele>
        <time>2013-06-20T11:26:26Z</time>
      </trkpt>
      <trkpt lat="45.7074" lon="5.88873">
        <ele>240.07</ele>
        <time>2013-06-20T11:26:30Z</time>
      </trkpt>
      <trkpt lat="45.70723" lon="5.88851">
        <ele>239.84</ele>
        <time>2013-06-20T11:26:34Z</time>
      </trkpt>
      <trkpt lat="45.70706" lon="5.88833">
        <ele>239.41</ele>
        <time>2013-06-20T11:26:38Z</time>
      </trkpt>
      <trkpt lat="45.70688" lon="5.88815">
        <ele>239.17</ele>
        <time>2013-06-20T11:26:42Z</time>
      </trkpt>
      <trkpt lat="45.70671" lon="5.88798">
        <ele>239.35</ele>
        <time>2013-06-20T11:26:46Z</time>
      </trkpt>
      <trkpt lat="45.70651" lon="5.88783">
        <ele>239.53</ele>
        <time>2013-06-20T11:26:50Z</time>
      </trkpt>
      <trkpt lat="45.70635" lon="5.88763">
        <ele>239.3</ele>
        <time>2013-06-20T11:26:54Z</time>
      </trkpt>
      <trkpt lat="45.70626" lon="5.88737">
        <ele>239.34</ele>
        <time>2013-06-20T11:26:58Z</time>
      </trkpt>
      <trkpt lat="45.70611" lon="5.88717">
        <ele>239.5</ele>
        <time>2013-06-20T11:27:02Z</time>
      </trkpt>
      <trkpt lat="45.70595" lon="5.88695">
        <ele>239.59</ele>
        <time>2013-06-20T11:27:06Z</time>
      </trkpt>
      <trkpt lat="45.70582" lon="5.8867">
        <ele>239.64</ele>
        <time>2013-06-20T11:27:10Z</time>
      </trkpt>
      <trkpt lat="45.70572" lon="5.8864">
        <ele>238.96</ele>
        <time>2013-06-20T11:27:14Z</time>
      </trkpt>
      <trkpt lat="45.70562" lon="5.88612">
        <ele>238.46</ele>
        <time>2013-06-20T11:27:18Z</time>
      </trkpt>
      <trkpt lat="45.70544" lon="5.88595">
        <ele>238.02</ele>
        <time>2013-06-20T11:27:22Z</time>
      </trkpt>
      <trkpt lat="45.70523" lon="5.88587">
        <ele>237.56</ele>
        <time>2013-06-20T11:27:26Z</time>
      </trkpt>
      <trkpt lat="45.70505" lon="5.8858">
        <ele>238.05</ele>
        <time>2013-06-20T11:27:30Z</time>
      </trkpt>
      <trkpt lat="45.70487" lon="5.88581">
        <ele>239.34</ele>
        <time>2013-06-20T11:27:36Z</time>
      </trkpt>
      <trkpt lat="45.70469" lon="5.88594">
        <ele>239.8</ele>
        <time>2013-06-20T11:27:40Z</time>
      </trkpt>
      <trkpt lat="45.70451" lon="5.88589">
        <ele>239.14</ele>
        <time>2013-06-20T11:27:44Z</time>
      </trkpt>
      <trkpt lat="45.70432" lon="5.88583">
        <ele>238.31</ele>
        <time>2013-06-20T11:27:48Z</time>
      </trkpt>
      <trkpt lat="45.70413" lon="5.88586">
        <ele>237.27</ele>
        <time>2013-06-20T11:27:54Z</time>
      </trkpt>
    </trkseg>
  </trk>
</gpx>